Observation data for Persimmon Gap on 03/13/2018      Previous  Date       Current Mesonet Observations  Soil Data  Daily Summary Page  Observations in Plain Language
KPG1 130500Z 01013KT 12/M08 A3019 RMK A01 T01201077  RH  024%=      5-min Rain = 0
KPG1 130501Z 01014KT 12/M08 A3019 RMK A01 T01201078  RH  024%=      5-min Rain = 0
KPG1 130502Z 01013KT 12/M08 A3019 RMK A01 T01191078  RH  024%=      5-min Rain = 0
KPG1 130503Z 01014KT 12/M08 A3019 RMK A01 T01191078  RH  024%=      5-min Rain = 0
KPG1 130504Z 01013KT 12/M08 A3019 RMK A01 T01191078  RH  024%=      5-min Rain = 0
KPG1 130505Z 01013KT 12/M08 A3019 RMK A01 T01191078  RH  024%=      5-min Rain = 0
KPG1 130506Z 01013KT 12/M08 A3019 RMK A01 T01191078  RH  024%=      5-min Rain = 0
KPG1 130507Z 01013KT 12/M08 A3018 RMK A01 T01191078  RH  024%=      5-min Rain = 0
KPG1 130508Z 01014KT 12/M08 A3018 RMK A01 T01191078  RH  024%=      5-min Rain = 0
KPG1 130509Z 01013KT 12/M08 A3018 RMK A01 T01191078  RH  025%=      5-min Rain = 0
KPG1 130510Z 00014KT 12/M08 A3019 RMK A01 T01181078  RH  025%=      5-min Rain = 0
KPG1 130511Z 01014KT 12/M08 A3019 RMK A01 T01181078  RH  025%=      5-min Rain = 0
KPG1 130512Z 01015KT 12/M08 A3019 RMK A01 T01181078  RH  025%=      5-min Rain = 0
KPG1 130513Z 00014KT 12/M08 A3019 RMK A01 T01181078  RH  025%=      5-min Rain = 0
KPG1 130514Z 36015KT 12/M08 A3019 RMK A01 T01191078  RH  025%=      5-min Rain = 0
KPG1 130515Z 01013KT 12/M08 A3019 RMK A01 T01191077  RH  025%=      5-min Rain = 0
KPG1 130516Z 01013KT 12/M08 A3019 RMK A01 T01191078  RH  025%=      5-min Rain = 0
KPG1 130517Z 00015KT 12/M08 A3019 RMK A01 T01181077  RH  025%=      5-min Rain = 0
KPG1 130518Z 00013KT 12/M08 A3019 RMK A01 T01181077  RH  025%=      5-min Rain = 0
KPG1 130519Z 00014KT 12/M08 A3019 RMK A01 T01181077  RH  025%=      5-min Rain = 0
KPG1 130520Z 01015KT 12/M08 A3019 RMK A01 T01181077  RH  025%=      5-min Rain = 0
KPG1 130521Z 01013KT 12/M08 A3019 RMK A01 T01191077  RH  025%=      5-min Rain = 0
KPG1 130522Z 01013KT 12/M08 A3019 RMK A01 T01181078  RH  025%=      5-min Rain = 0
KPG1 130523Z 00015KT 12/M08 A3019 RMK A01 T01181077  RH  025%=      5-min Rain = 0
KPG1 130524Z 01014G19KT 12/M08 A3019 RMK A01 T01181077  RH  025%=      5-min Rain = 0
KPG1 130525Z 01014KT 12/M08 A3019 RMK A01 T01181077  RH  025%=      5-min Rain = 0
KPG1 130526Z 01014KT 12/M08 A3019 RMK A01 T01181077  RH  025%=      5-min Rain = 0
KPG1 130527Z 01013KT 12/M08 A3018 RMK A01 T01181077  RH  025%=      5-min Rain = 0
KPG1 130528Z 01015KT 12/M08 A3018 RMK A01 T01181077  RH  025%=      5-min Rain = 0
KPG1 130529Z 01014KT 12/M08 A3018 RMK A01 T01171077  RH  025%=      5-min Rain = 0
KPG1 130530Z 01014KT 12/M08 A3018 RMK A01 T01171077  RH  025%=      5-min Rain = 0
KPG1 130531Z 02012KT 12/M08 A3018 RMK A01 T01181076  RH  025%=      5-min Rain = 0
KPG1 130532Z 01013KT 12/M08 A3018 RMK A01 T01181076  RH  025%=      5-min Rain = 0
KPG1 130533Z 01014G20KT 12/M08 A3018 RMK A01 T01171076  RH  025%=      5-min Rain = 0
KPG1 130534Z 01014KT 12/M08 A3018 RMK A01 T01171076  RH  025%=      5-min Rain = 0
KPG1 130535Z 00015KT 12/M08 A3018 RMK A01 T01171076  RH  025%=      5-min Rain = 0
KPG1 130536Z 01014KT 12/M08 A3018 RMK A01 T01171076  RH  025%=      5-min Rain = 0
KPG1 130537Z 01015KT 12/M08 A3018 RMK A01 T01171076  RH  025%=      5-min Rain = 0
KPG1 130538Z 01015KT 12/M08 A3018 RMK A01 T01161076  RH  025%=      5-min Rain = 0
KPG1 130539Z 01014KT 12/M08 A3018 RMK A01 T01171076  RH  025%=      5-min Rain = 0
KPG1 130540Z 01014KT 12/M08 A3018 RMK A01 T01171076  RH  025%=      5-min Rain = 0
KPG1 130541Z 02015KT 12/M08 A3018 RMK A01 T01171076  RH  025%=      5-min Rain = 0
KPG1 130542Z 01014KT 12/M08 A3018 RMK A01 T01171076  RH  025%=      5-min Rain = 0
KPG1 130543Z 01014KT 12/M08 A3018 RMK A01 T01161076  RH  025%=      5-min Rain = 0
KPG1 130544Z 01013KT 12/M08 A3018 RMK A01 T01161076  RH  025%=      5-min Rain = 0
KPG1 130545Z 01015KT 12/M08 A3018 RMK A01 T01161076  RH  025%=      5-min Rain = 0
KPG1 130546Z 00015KT 12/M08 A3018 RMK A01 T01161077  RH  025%=      5-min Rain = 0
KPG1 130547Z 00014KT 12/M08 A3018 RMK A01 T01161077  RH  025%=      5-min Rain = 0
KPG1 130548Z 01014KT 12/M08 A3018 RMK A01 T01161077  RH  025%=      5-min Rain = 0
KPG1 130549Z 01014KT 12/M08 A3018 RMK A01 T01161077  RH  025%=      5-min Rain = 0
KPG1 130550Z 01014KT 12/M08 A3018 RMK A01 T01161077  RH  025%=      5-min Rain = 0
KPG1 130551Z 01015KT 12/M08 A3018 RMK A01 T01161077  RH  025%=      5-min Rain = 0
KPG1 130552Z 01013KT 12/M08 A3018 RMK A01 T01161077  RH  025%=      5-min Rain = 0
KPG1 130553Z 00014KT 12/M08 A3018 RMK A01 T01161077  RH  025%=      5-min Rain = 0
KPG1 130554Z 01015KT 12/M08 A3018 RMK A01 T01161077  RH  025%=      5-min Rain = 0
KPG1 130555Z 01014KT 12/M08 A3018 RMK A01 T01161077  RH  025%=      5-min Rain = 0
KPG1 130556Z 01014KT 12/M08 A3018 RMK A01 T01161077  RH  025%=      5-min Rain = 0
KPG1 130557Z 01014KT 12/M08 A3018 RMK A01 T01151077  RH  025%=      5-min Rain = 0
KPG1 130558Z 01013KT 12/M08 A3018 RMK A01 T01151077  RH  025%=      5-min Rain = 0
KPG1 130559Z 01015KT 12/M08 A3018 RMK A01 T01151077  RH  025%=      5-min Rain = 0
KPG1 130600Z 01014KT 12/M08 A3018 RMK A01 T01151077  RH  025%=      5-min Rain = 0
KPG1 130601Z 01014KT 12/M08 A3018 RMK A01 T01151077  RH  025%=      5-min Rain = 0
KPG1 130602Z 01015KT 12/M08 A3018 RMK A01 T01151077  RH  025%=      5-min Rain = 0
KPG1 130603Z 01015KT 12/M08 A3018 RMK A01 T01151077  RH  025%=      5-min Rain = 0
KPG1 130604Z 00014KT 12/M08 A3018 RMK A01 T01151077  RH  025%=      5-min Rain = 0
KPG1 130605Z 01014KT 12/M08 A3018 RMK A01 T01151077  RH  025%=      5-min Rain = 0
KPG1 130606Z 01014KT 12/M08 A3018 RMK A01 T01161077  RH  025%=      5-min Rain = 0
KPG1 130607Z 01013KT 12/M08 A3018 RMK A01 T01151077  RH  025%=      5-min Rain = 0
KPG1 130608Z 00014KT 12/M08 A3018 RMK A01 T01151077  RH  025%=      5-min Rain = 0
KPG1 130609Z 01014KT 11/M08 A3018 RMK A01 T01141077  RH  025%=      5-min Rain = 0
KPG1 130610Z 00014KT 11/M08 A3017 RMK A01 T01141077  RH  025%=      5-min Rain = 0
KPG1 130611Z 00014KT 12/M08 A3018 RMK A01 T01151077  RH  025%=      5-min Rain = 0
KPG1 130612Z 01014KT 12/M08 A3017 RMK A01 T01151077  RH  025%=      5-min Rain = 0
KPG1 130613Z 00015KT 12/M08 A3017 RMK A01 T01151077  RH  025%=      5-min Rain = 0
KPG1 130614Z 01013KT 12/M08 A3017 RMK A01 T01151077  RH  025%=      5-min Rain = 0
KPG1 130615Z 01013KT 12/M08 A3017 RMK A01 T01151076  RH  025%=      5-min Rain = 0
KPG1 130616Z 01013KT 11/M08 A3017 RMK A01 T01141077  RH  025%=      5-min Rain = 0
KPG1 130617Z 00013KT 11/M08 A3017 RMK A01 T01141077  RH  025%=      5-min Rain = 0
KPG1 130618Z 00013KT 11/M08 A3017 RMK A01 T01141077  RH  026%=      5-min Rain = 0
KPG1 130619Z 01012KT 11/M08 A3017 RMK A01 T01141077  RH  026%=      5-min Rain = 0
KPG1 130620Z 00012KT 11/M08 A3017 RMK A01 T01131077  RH  026%=      5-min Rain = 0
KPG1 130621Z 01013KT 11/M08 A3017 RMK A01 T01131077  RH  026%=      5-min Rain = 0
KPG1 130622Z 01014KT 11/M08 A3017 RMK A01 T01131077  RH  026%=      5-min Rain = 0
KPG1 130623Z 01012KT 11/M08 A3017 RMK A01 T01131076  RH  026%=      5-min Rain = 0
KPG1 130624Z 01014KT 11/M08 A3017 RMK A01 T01131077  RH  026%=      5-min Rain = 0
KPG1 130625Z 01014KT 11/M08 A3017 RMK A01 T01131076  RH  026%=      5-min Rain = 0
KPG1 130626Z 00014KT 11/M08 A3017 RMK A01 T01131076  RH  026%=      5-min Rain = 0
KPG1 130627Z 01015KT 11/M08 A3017 RMK A01 T01131076  RH  026%=      5-min Rain = 0
KPG1 130628Z 01013KT 11/M08 A3017 RMK A01 T01131076  RH  026%=      5-min Rain = 0
KPG1 130629Z 00013KT 11/M08 A3017 RMK A01 T01131076  RH  026%=      5-min Rain = 0
KPG1 130630Z 01013KT 11/M08 A3017 RMK A01 T01131076  RH  026%=      5-min Rain = 0
KPG1 130631Z 01012KT 11/M08 A3017 RMK A01 T01131076  RH  026%=      5-min Rain = 0
KPG1 130632Z 01013KT 11/M08 A3017 RMK A01 T01141076  RH  026%=      5-min Rain = 0
KPG1 130633Z 01014KT 11/M08 A3017 RMK A01 T01131076  RH  026%=      5-min Rain = 0
KPG1 130634Z 01013KT 11/M08 A3017 RMK A01 T01131076  RH  026%=      5-min Rain = 0
KPG1 130635Z 01015KT 11/M08 A3017 RMK A01 T01131076  RH  026%=      5-min Rain = 0
KPG1 130636Z 01014KT 11/M08 A3017 RMK A01 T01131076  RH  026%=      5-min Rain = 0
KPG1 130637Z 01013KT 11/M08 A3017 RMK A01 T01131076  RH  026%=      5-min Rain = 0
KPG1 130638Z 00014KT 11/M08 A3017 RMK A01 T01131076  RH  026%=      5-min Rain = 0
KPG1 130639Z 01016KT 11/M08 A3017 RMK A01 T01131076  RH  026%=      5-min Rain = 0
KPG1 130640Z 01015KT 11/M08 A3017 RMK A01 T01141076  RH  026%=      5-min Rain = 0
KPG1 130641Z 00015KT 11/M08 A3017 RMK A01 T01141076  RH  026%=      5-min Rain = 0
KPG1 130642Z 00014KT 11/M08 A3017 RMK A01 T01141076  RH  026%=      5-min Rain = 0
KPG1 130643Z 00014KT 11/M08 A3017 RMK A01 T01141076  RH  026%=      5-min Rain = 0
KPG1 130644Z 00014KT 11/M08 A3017 RMK A01 T01141076  RH  026%=      5-min Rain = 0
KPG1 130645Z 00012KT 11/M08 A3017 RMK A01 T01141076  RH  026%=      5-min Rain = 0
KPG1 130646Z 01014KT 11/M08 A3017 RMK A01 T01131076  RH  026%=      5-min Rain = 0
KPG1 130647Z 01013KT 11/M08 A3017 RMK A01 T01141076  RH  026%=      5-min Rain = 0
KPG1 130648Z 01012G17KT 11/M08 A3017 RMK A01 T01141076  RH  026%=      5-min Rain = 0
KPG1 130649Z 01013KT 11/M08 A3017 RMK A01 T01141076  RH  026%=      5-min Rain = 0
KPG1 130650Z 01013KT 11/M08 A3017 RMK A01 T01141076  RH  026%=      5-min Rain = 0
KPG1 130651Z 00013KT 11/M08 A3017 RMK A01 T01141076  RH  026%=      5-min Rain = 0
KPG1 130652Z 00014KT 11/M08 A3017 RMK A01 T01131076  RH  026%=      5-min Rain = 0
KPG1 130653Z 00014KT 11/M08 A3017 RMK A01 T01141076  RH  026%=      5-min Rain = 0
KPG1 130654Z 36013KT 11/M08 A3017 RMK A01 T01131076  RH  026%=      5-min Rain = 0
KPG1 130655Z 00014KT 11/M08 A3017 RMK A01 T01131076  RH  026%=      5-min Rain = 0
KPG1 130656Z 00013KT 11/M08 A3017 RMK A01 T01131076  RH  026%=      5-min Rain = 0
KPG1 130657Z 00014KT 11/M08 A3017 RMK A01 T01131076  RH  026%=      5-min Rain = 0
KPG1 130658Z 00013KT 11/M08 A3017 RMK A01 T01131077  RH  026%=      5-min Rain = 0
KPG1 130659Z 00015KT 11/M08 A3017 RMK A01 T01131076  RH  026%=      5-min Rain = 0
KPG1 130700Z 00014KT 11/M08 A3017 RMK A01 T01131076  RH  026%=      5-min Rain = 0
KPG1 130701Z 36014KT 11/M08 A3017 RMK A01 T01141077  RH  026%=      5-min Rain = 0
KPG1 130702Z 36013KT 11/M08 A3017 RMK A01 T01141077  RH  026%=      5-min Rain = 0
KPG1 130703Z 00013KT 11/M08 A3017 RMK A01 T01141077  RH  026%=      5-min Rain = 0
KPG1 130704Z 00012KT 11/M08 A3018 RMK A01 T01131077  RH  026%=      5-min Rain = 0
KPG1 130705Z 01012KT 11/M08 A3017 RMK A01 T01131077  RH  026%=      5-min Rain = 0
KPG1 130706Z 00013KT 11/M08 A3017 RMK A01 T01131077  RH  026%=      5-min Rain = 0
KPG1 130707Z 01013KT 11/M08 A3017 RMK A01 T01131077  RH  026%=      5-min Rain = 0
KPG1 130708Z 00013KT 11/M08 A3017 RMK A01 T01141077  RH  026%=      5-min Rain = 0
KPG1 130709Z 01013KT 11/M08 A3017 RMK A01 T01131077  RH  026%=      5-min Rain = 0
KPG1 130710Z 01013KT 11/M08 A3017 RMK A01 T01131077  RH  026%=      5-min Rain = 0
KPG1 130711Z 00011KT 11/M08 A3017 RMK A01 T01131077  RH  026%=      5-min Rain = 0
KPG1 130712Z 36012KT 11/M08 A3017 RMK A01 T01131077  RH  026%=      5-min Rain = 0
KPG1 130713Z 36013KT 11/M08 A3017 RMK A01 T01131077  RH  026%=      5-min Rain = 0
KPG1 130714Z 01013KT 11/M08 A3017 RMK A01 T01131077  RH  026%=      5-min Rain = 0
KPG1 130715Z 01013KT 11/M08 A3017 RMK A01 T01131077  RH  026%=      5-min Rain = 0
KPG1 130716Z 00014KT 11/M08 A3017 RMK A01 T01141077  RH  026%=      5-min Rain = 0
KPG1 130717Z 00015KT 11/M08 A3017 RMK A01 T01141077  RH  026%=      5-min Rain = 0
KPG1 130718Z 00013KT 11/M08 A3016 RMK A01 T01131077  RH  026%=      5-min Rain = 0
KPG1 130719Z 00013KT 11/M08 A3017 RMK A01 T01131077  RH  026%=      5-min Rain = 0
KPG1 130720Z 00014KT 11/M08 A3017 RMK A01 T01131077  RH  026%=      5-min Rain = 0
KPG1 130721Z 01011KT 11/M08 A3017 RMK A01 T01131077  RH  026%=      5-min Rain = 0
KPG1 130722Z 00011KT 11/M08 A3017 RMK A01 T01131077  RH  026%=      5-min Rain = 0
KPG1 130723Z 01011KT 11/M08 A3017 RMK A01 T01121077  RH  026%=      5-min Rain = 0
KPG1 130724Z 00013KT 11/M08 A3017 RMK A01 T01121076  RH  026%=      5-min Rain = 0
KPG1 130725Z 00012KT 11/M08 A3017 RMK A01 T01121077  RH  026%=      5-min Rain = 0
KPG1 130726Z 01013KT 11/M08 A3017 RMK A01 T01121077  RH  026%=      5-min Rain = 0
KPG1 130727Z 00014KT 11/M08 A3017 RMK A01 T01121077  RH  026%=      5-min Rain = 0
KPG1 130728Z 01014KT 11/M08 A3016 RMK A01 T01121077  RH  026%=      5-min Rain = 0
KPG1 130729Z 00013KT 11/M08 A3016 RMK A01 T01131077  RH  026%=      5-min Rain = 0
KPG1 130730Z 36012KT 11/M08 A3016 RMK A01 T01131077  RH  026%=      5-min Rain = 0
KPG1 130731Z 00013KT 11/M08 A3016 RMK A01 T01131077  RH  026%=      5-min Rain = 0
KPG1 130732Z 00012KT 11/M08 A3016 RMK A01 T01121077  RH  026%=      5-min Rain = 0
KPG1 130733Z 00014KT 11/M08 A3016 RMK A01 T01131077  RH  026%=      5-min Rain = 0
KPG1 130734Z 01013KT 11/M08 A3016 RMK A01 T01131077  RH  026%=      5-min Rain = 0
KPG1 130735Z 01013KT 11/M08 A3016 RMK A01 T01131077  RH  026%=      5-min Rain = 0
KPG1 130736Z 01013KT 11/M08 A3016 RMK A01 T01131077  RH  026%=      5-min Rain = 0
KPG1 130737Z 01014KT 11/M08 A3016 RMK A01 T01131076  RH  026%=      5-min Rain = 0
KPG1 130738Z 01012KT 11/M08 A3016 RMK A01 T01131076  RH  026%=      5-min Rain = 0
KPG1 130739Z 01012KT 11/M08 A3016 RMK A01 T01131076  RH  026%=      5-min Rain = 0
KPG1 130740Z 01013KT 11/M08 A3016 RMK A01 T01131076  RH  026%=      5-min Rain = 0
KPG1 130741Z 01012KT 11/M08 A3016 RMK A01 T01121076  RH  026%=      5-min Rain = 0
KPG1 130742Z 01012KT 11/M08 A3016 RMK A01 T01121076  RH  026%=      5-min Rain = 0
KPG1 130743Z 01013KT 11/M08 A3016 RMK A01 T01121076  RH  026%=      5-min Rain = 0
KPG1 130744Z 01012KT 11/M08 A3016 RMK A01 T01121076  RH  026%=      5-min Rain = 0
KPG1 130745Z 01012KT 11/M08 A3016 RMK A01 T01121076  RH  026%=      5-min Rain = 0
KPG1 130746Z 01013KT 11/M08 A3016 RMK A01 T01121076  RH  026%=      5-min Rain = 0
KPG1 130747Z 00013KT 11/M08 A3016 RMK A01 T01121075  RH  026%=      5-min Rain = 0
KPG1 130748Z 01012KT 11/M08 A3016 RMK A01 T01121075  RH  026%=      5-min Rain = 0
KPG1 130749Z 01012KT 11/M08 A3016 RMK A01 T01121075  RH  026%=      5-min Rain = 0
KPG1 130750Z 02013KT 11/M08 A3016 RMK A01 T01121075  RH  026%=      5-min Rain = 0
KPG1 130751Z 01011KT 11/M08 A3016 RMK A01 T01121075  RH  026%=      5-min Rain = 0
KPG1 130752Z 01011KT 11/M08 A3016 RMK A01 T01121075  RH  026%=      5-min Rain = 0
KPG1 130753Z 01012KT 11/M08 A3016 RMK A01 T01121075  RH  026%=      5-min Rain = 0
KPG1 130754Z 01012KT 11/M08 A3016 RMK A01 T01121075  RH  026%=      5-min Rain = 0
KPG1 130755Z 01012KT 11/M08 A3016 RMK A01 T01121075  RH  026%=      5-min Rain = 0
KPG1 130756Z 00012KT 11/M08 A3016 RMK A01 T01111075  RH  026%=      5-min Rain = 0
KPG1 130757Z 00013KT 11/M08 A3016 RMK A01 T01121075  RH  026%=      5-min Rain = 0
KPG1 130758Z 01013KT 11/M08 A3016 RMK A01 T01121075  RH  026%=      5-min Rain = 0
KPG1 130759Z 00014KT 11/M08 A3016 RMK A01 T01121075  RH  026%=      5-min Rain = 0
KPG1 130800Z 01012KT 11/M08 A3016 RMK A01 T01121075  RH  026%=      5-min Rain = 0
KPG1 130801Z 01013KT 11/M08 A3016 RMK A01 T01121075  RH  026%=      5-min Rain = 0
KPG1 130802Z 01013KT 11/M08 A3016 RMK A01 T01121075  RH  026%=      5-min Rain = 0
KPG1 130803Z 01013KT 11/M07 A3016 RMK A01 T01121074  RH  026%=      5-min Rain = 0
KPG1 130804Z 01011KT 11/M07 A3016 RMK A01 T01111074  RH  026%=      5-min Rain = 0
KPG1 130805Z 01011KT 11/M08 A3016 RMK A01 T01111075  RH  026%=      5-min Rain = 0
KPG1 130806Z 01011KT 11/M08 A3016 RMK A01 T01111075  RH  027%=      5-min Rain = 0
KPG1 130807Z 01012KT 11/M08 A3016 RMK A01 T01101075  RH  027%=      5-min Rain = 0
KPG1 130808Z 01012KT 11/M08 A3016 RMK A01 T01101075  RH  027%=      5-min Rain = 0
KPG1 130809Z 01013KT 11/M08 A3016 RMK A01 T01101075  RH  027%=      5-min Rain = 0
KPG1 130810Z 01012KT 11/M07 A3016 RMK A01 T01111074  RH  027%=      5-min Rain = 0
KPG1 130811Z 01011KT 11/M08 A3016 RMK A01 T01111075  RH  027%=      5-min Rain = 0
KPG1 130812Z 01011KT 11/M08 A3016 RMK A01 T01101075  RH  026%=      5-min Rain = 0
KPG1 130813Z 00012KT 11/M07 A3016 RMK A01 T01111074  RH  027%=      5-min Rain = 0
KPG1 130814Z 00012KT 11/M07 A3016 RMK A01 T01111074  RH  027%=      5-min Rain = 0
KPG1 130815Z 01011KT 11/M07 A3016 RMK A01 T01111074  RH  027%=      5-min Rain = 0
KPG1 130816Z 00011KT 11/M07 A3016 RMK A01 T01101074  RH  027%=      5-min Rain = 0
KPG1 130817Z 00012KT 11/M07 A3016 RMK A01 T01101074  RH  027%=      5-min Rain = 0
KPG1 130818Z 00012KT 11/M07 A3016 RMK A01 T01101074  RH  027%=      5-min Rain = 0
KPG1 130819Z 01011KT 11/M07 A3016 RMK A01 T01101074  RH  027%=      5-min Rain = 0
KPG1 130820Z 01011KT 11/M07 A3016 RMK A01 T01101073  RH  027%=      5-min Rain = 0
KPG1 130821Z 00012KT 11/M07 A3016 RMK A01 T01101074  RH  027%=      5-min Rain = 0
KPG1 130822Z 01011KT 11/M07 A3016 RMK A01 T01101073  RH  027%=      5-min Rain = 0
KPG1 130823Z 01012KT 11/M07 A3016 RMK A01 T01101073  RH  027%=      5-min Rain = 0
KPG1 130824Z 01012KT 11/M07 A3016 RMK A01 T01101073  RH  027%=      5-min Rain = 0
KPG1 130825Z 01013KT 11/M07 A3016 RMK A01 T01111073  RH  027%=      5-min Rain = 0
KPG1 130826Z 01013KT 11/M07 A3016 RMK A01 T01111073  RH  027%=      5-min Rain = 0
KPG1 130827Z 01012KT 11/M07 A3016 RMK A01 T01111073  RH  027%=      5-min Rain = 0
KPG1 130828Z 01012KT 11/M07 A3016 RMK A01 T01111073  RH  027%=      5-min Rain = 0
KPG1 130829Z 00012KT 11/M07 A3016 RMK A01 T01111073  RH  027%=      5-min Rain = 0
KPG1 130830Z 01010KT 11/M07 A3016 RMK A01 T01111073  RH  027%=      5-min Rain = 0
KPG1 130831Z 01011KT 11/M07 A3016 RMK A01 T01111073  RH  027%=      5-min Rain = 0
KPG1 130832Z 01012KT 11/M07 A3016 RMK A01 T01111073  RH  027%=      5-min Rain = 0
KPG1 130833Z 01012KT 11/M07 A3015 RMK A01 T01111073  RH  027%=      5-min Rain = 0
KPG1 130834Z 01012KT 11/M07 A3015 RMK A01 T01111073  RH  027%=      5-min Rain = 0
KPG1 130835Z 01013KT 11/M07 A3015 RMK A01 T01111073  RH  027%=      5-min Rain = 0
KPG1 130836Z 01011KT 11/M07 A3015 RMK A01 T01111072  RH  027%=      5-min Rain = 0
KPG1 130837Z 01011KT 11/M07 A3015 RMK A01 T01111073  RH  027%=      5-min Rain = 0
KPG1 130838Z 01012KT 11/M07 A3015 RMK A01 T01121072  RH  027%=      5-min Rain = 0
KPG1 130839Z 01011KT 11/M07 A3015 RMK A01 T01121072  RH  027%=      5-min Rain = 0
KPG1 130840Z 01012KT 11/M07 A3015 RMK A01 T01111072  RH  027%=      5-min Rain = 0
KPG1 130841Z 01011KT 11/M07 A3015 RMK A01 T01111072  RH  027%=      5-min Rain = 0
KPG1 130842Z 01011KT 11/M07 A3015 RMK A01 T01121072  RH  027%=      5-min Rain = 0
KPG1 130843Z 00011KT 11/M07 A3015 RMK A01 T01121072  RH  027%=      5-min Rain = 0
KPG1 130844Z 01011KT 11/M07 A3015 RMK A01 T01121072  RH  027%=      5-min Rain = 0
KPG1 130845Z 01012KT 11/M07 A3015 RMK A01 T01121072  RH  027%=      5-min Rain = 0
KPG1 130846Z 01011KT 11/M07 A3015 RMK A01 T01121072  RH  027%=      5-min Rain = 0
KPG1 130847Z 01010KT 11/M07 A3015 RMK A01 T01121072  RH  027%=      5-min Rain = 0
KPG1 130848Z 01011KT 11/M07 A3015 RMK A01 T01121072  RH  027%=      5-min Rain = 0
KPG1 130849Z 01010KT 11/M07 A3015 RMK A01 T01121072  RH  027%=      5-min Rain = 0
KPG1 130850Z 01010KT 11/M07 A3015 RMK A01 T01121072  RH  027%=      5-min Rain = 0
KPG1 130851Z 01012KT 11/M07 A3015 RMK A01 T01121072  RH  027%=      5-min Rain = 0
KPG1 130852Z 01011KT 11/M07 A3015 RMK A01 T01121072  RH  027%=      5-min Rain = 0
KPG1 130853Z 01010KT 11/M07 A3015 RMK A01 T01121072  RH  027%=      5-min Rain = 0
KPG1 130854Z 02011KT 11/M07 A3015 RMK A01 T01121072  RH  027%=      5-min Rain = 0
KPG1 130855Z 02010KT 11/M07 A3015 RMK A01 T01121072  RH  027%=      5-min Rain = 0
KPG1 130856Z 01010KT 11/M07 A3015 RMK A01 T01121072  RH  027%=      5-min Rain = 0
KPG1 130857Z 01010KT 11/M07 A3015 RMK A01 T01121072  RH  027%=      5-min Rain = 0
KPG1 130858Z 01011KT 11/M07 A3015 RMK A01 T01121072  RH  027%=      5-min Rain = 0
KPG1 130859Z 01011KT 11/M07 A3014 RMK A01 T01121072  RH  027%=      5-min Rain = 0
KPG1 130900Z 02011KT 11/M07 A3014 RMK A01 T01121072  RH  027%=      5-min Rain = 0
KPG1 130901Z 01011KT 11/M07 A3014 RMK A01 T01131072  RH  027%=      5-min Rain = 0
KPG1 130902Z 01011KT 11/M07 A3014 RMK A01 T01121072  RH  027%=      5-min Rain = 0
KPG1 130903Z 01010KT 11/M07 A3014 RMK A01 T01121072  RH  027%=      5-min Rain = 0
KPG1 130904Z 01010KT 11/M07 A3014 RMK A01 T01121072  RH  027%=      5-min Rain = 0
KPG1 130905Z 01009KT 11/M07 A3014 RMK A01 T01111072  RH  027%=      5-min Rain = 0
KPG1 130906Z 02011KT 11/M07 A3014 RMK A01 T01111071  RH  027%=      5-min Rain = 0
KPG1 130907Z 02010KT 11/M07 A3014 RMK A01 T01111072  RH  027%=      5-min Rain = 0
KPG1 130908Z 02011KT 11/M07 A3014 RMK A01 T01111072  RH  027%=      5-min Rain = 0
KPG1 130909Z 02011KT 11/M07 A3014 RMK A01 T01121072  RH  027%=      5-min Rain = 0
KPG1 130910Z 02010KT 11/M07 A3015 RMK A01 T01121072  RH  027%=      5-min Rain = 0
KPG1 130911Z 01010KT 11/M07 A3015 RMK A01 T01121072  RH  027%=      5-min Rain = 0
KPG1 130912Z 02008KT 11/M07 A3015 RMK A01 T01121072  RH  027%=      5-min Rain = 0
KPG1 130913Z 01009KT 11/M07 A3015 RMK A01 T01111072  RH  027%=      5-min Rain = 0
KPG1 130914Z 01011KT 11/M07 A3015 RMK A01 T01111072  RH  027%=      5-min Rain = 0
KPG1 130915Z 01009KT 11/M07 A3015 RMK A01 T01111072  RH  027%=      5-min Rain = 0
KPG1 130916Z 01009KT 11/M07 A3015 RMK A01 T01111072  RH  027%=      5-min Rain = 0
KPG1 130917Z 01010KT 11/M07 A3015 RMK A01 T01111071  RH  027%=      5-min Rain = 0
KPG1 130918Z 01009KT 11/M07 A3015 RMK A01 T01121071  RH  027%=      5-min Rain = 0
KPG1 130919Z 02008KT 11/M07 A3015 RMK A01 T01121072  RH  027%=      5-min Rain = 0
KPG1 130920Z 01008KT 11/M07 A3015 RMK A01 T01111072  RH  027%=      5-min Rain = 0
KPG1 130921Z 02008KT 11/M07 A3015 RMK A01 T01111072  RH  027%=      5-min Rain = 0
KPG1 130922Z 01009KT 11/M07 A3015 RMK A01 T01111072  RH  027%=      5-min Rain = 0
KPG1 130923Z 01009KT 11/M07 A3015 RMK A01 T01111071  RH  027%=      5-min Rain = 0
KPG1 130924Z 02008KT 11/M07 A3015 RMK A01 T01121071  RH  027%=      5-min Rain = 0
KPG1 130925Z 01009KT 11/M07 A3015 RMK A01 T01121071  RH  027%=      5-min Rain = 0
KPG1 130926Z 01009KT 11/M07 A3015 RMK A01 T01111072  RH  027%=      5-min Rain = 0
KPG1 130927Z 01008KT 11/M07 A3015 RMK A01 T01111071  RH  027%=      5-min Rain = 0
KPG1 130928Z 01009KT 11/M07 A3015 RMK A01 T01111071  RH  027%=      5-min Rain = 0
KPG1 130929Z 01008KT 11/M07 A3015 RMK A01 T01111071  RH  027%=      5-min Rain = 0
KPG1 130930Z 02008KT 11/M07 A3015 RMK A01 T01111072  RH  027%=      5-min Rain = 0
KPG1 130931Z 01009KT 11/M07 A3015 RMK A01 T01101072  RH  027%=      5-min Rain = 0
KPG1 130932Z 02008KT 11/M07 A3015 RMK A01 T01101071  RH  027%=      5-min Rain = 0
KPG1 130933Z 02008KT 11/M07 A3015 RMK A01 T01111071  RH  027%=      5-min Rain = 0
KPG1 130934Z 01009KT 11/M07 A3015 RMK A01 T01101071  RH  027%=      5-min Rain = 0
KPG1 130935Z 01010KT 11/M07 A3015 RMK A01 T01101072  RH  027%=      5-min Rain = 0
KPG1 130936Z 02008KT 11/M07 A3015 RMK A01 T01101071  RH  027%=      5-min Rain = 0
KPG1 130937Z 02010KT 11/M07 A3015 RMK A01 T01101071  RH  027%=      5-min Rain = 0
KPG1 130938Z 01009KT 11/M07 A3015 RMK A01 T01101071  RH  027%=      5-min Rain = 0
KPG1 130939Z 01009KT 11/M07 A3015 RMK A01 T01101071  RH  027%=      5-min Rain = 0
KPG1 130940Z 02008KT 11/M07 A3015 RMK A01 T01111070  RH  027%=      5-min Rain = 0
KPG1 130941Z 02009KT 11/M07 A3015 RMK A01 T01101071  RH  027%=      5-min Rain = 0
KPG1 130942Z 01009KT 11/M07 A3015 RMK A01 T01101071  RH  027%=      5-min Rain = 0
KPG1 130943Z 01010KT 11/M07 A3015 RMK A01 T01101071  RH  027%=      5-min Rain = 0
KPG1 130944Z 02010KT 11/M07 A3015 RMK A01 T01111071  RH  027%=      5-min Rain = 0
KPG1 130945Z 02008KT 11/M07 A3015 RMK A01 T01121070  RH  027%=      5-min Rain = 0
KPG1 130946Z 02008KT 11/M07 A3015 RMK A01 T01111071  RH  027%=      5-min Rain = 0
KPG1 130947Z 02008KT 11/M07 A3015 RMK A01 T01101071  RH  027%=      5-min Rain = 0
KPG1 130948Z 02009KT 11/M07 A3015 RMK A01 T01101071  RH  027%=      5-min Rain = 0
KPG1 130949Z 02010KT 11/M07 A3015 RMK A01 T01101071  RH  028%=      5-min Rain = 0
KPG1 130950Z 02009KT 11/M07 A3015 RMK A01 T01091071  RH  028%=      5-min Rain = 0
KPG1 130951Z 02008KT 11/M07 A3015 RMK A01 T01081072  RH  028%=      5-min Rain = 0
KPG1 130952Z 02009KT 11/M07 A3015 RMK A01 T01061072  RH  028%=      5-min Rain = 0
KPG1 130953Z 02009KT 11/M07 A3015 RMK A01 T01061071  RH  028%=      5-min Rain = 0
KPG1 130954Z 01008KT 11/M07 A3015 RMK A01 T01081071  RH  028%=      5-min Rain = 0
KPG1 130955Z 02011KT 11/M07 A3015 RMK A01 T01071071  RH  028%=      5-min Rain = 0
KPG1 130956Z 02009KT 11/M07 A3015 RMK A01 T01071071  RH  028%=      5-min Rain = 0
KPG1 130957Z 02009KT 11/M07 A3015 RMK A01 T01071071  RH  028%=      5-min Rain = 0
KPG1 130958Z 02009KT 11/M07 A3015 RMK A01 T01051072  RH  028%=      5-min Rain = 0
KPG1 130959Z 02010KT 11/M07 A3015 RMK A01 T01061070  RH  028%=      5-min Rain = 0
KPG1 131000Z 03009KT 11/M07 A3015 RMK A01 T01081070  RH  028%=      5-min Rain = 0
KPG1 131001Z 02009KT 11/M07 A3015 RMK A01 T01061072  RH  028%=      5-min Rain = 0
KPG1 131002Z 02008KT 11/M07 A3015 RMK A01 T01051072  RH  028%=      5-min Rain = 0
KPG1 131003Z 03008KT 10/M07 A3015 RMK A01 T01031072  RH  028%=      5-min Rain = 0
KPG1 131004Z 02009KT 10/M07 A3015 RMK A01 T01011073  RH  029%=      5-min Rain = 0
KPG1 131005Z 03008KT 10/M07 A3014 RMK A01 T01011071  RH  029%=      5-min Rain = 0
KPG1 131006Z 03009KT 10/M07 A3014 RMK A01 T01021071  RH  029%=      5-min Rain = 0
KPG1 131007Z 03009KT 10/M07 A3014 RMK A01 T01011072  RH  029%=      5-min Rain = 0
KPG1 131008Z 03009KT 10/M07 A3014 RMK A01 T01001072  RH  029%=      5-min Rain = 0
KPG1 131009Z 03009KT 10/M07 A3014 RMK A01 T01001072  RH  029%=      5-min Rain = 0
KPG1 131010Z 03010KT 10/M07 A3014 RMK A01 T00991072  RH  029%=      5-min Rain = 0
KPG1 131011Z 02010KT 10/M07 A3015 RMK A01 T00991072  RH  029%=      5-min Rain = 0
KPG1 131012Z 02008KT 10/M07 A3015 RMK A01 T00991071  RH  029%=      5-min Rain = 0
KPG1 131013Z 02009KT 10/M07 A3015 RMK A01 T00991071  RH  029%=      5-min Rain = 0
KPG1 131014Z 02008KT 10/M07 A3015 RMK A01 T01001070  RH  029%=      5-min Rain = 0
KPG1 131015Z 02008KT 10/M07 A3015 RMK A01 T01011071  RH  029%=      5-min Rain = 0
KPG1 131016Z 03008KT 10/M07 A3015 RMK A01 T01011071  RH  029%=      5-min Rain = 0
KPG1 131017Z 03009KT 10/M07 A3014 RMK A01 T00991072  RH  029%=      5-min Rain = 0
KPG1 131018Z 02008KT 10/M07 A3014 RMK A01 T00981072  RH  029%=      5-min Rain = 0
KPG1 131019Z 03009KT 10/M07 A3015 RMK A01 T00971072  RH  030%=      5-min Rain = 0
KPG1 131020Z 03009KT 10/M07 A3015 RMK A01 T00971072  RH  030%=      5-min Rain = 0
KPG1 131021Z 02009KT 10/M07 A3015 RMK A01 T00961072  RH  030%=      5-min Rain = 0
KPG1 131022Z 03009KT 10/M07 A3015 RMK A01 T00971071  RH  030%=      5-min Rain = 0
KPG1 131023Z 02009KT 10/M07 A3015 RMK A01 T00981071  RH  030%=      5-min Rain = 0
KPG1 131024Z 02008KT 10/M07 A3015 RMK A01 T00981071  RH  030%=      5-min Rain = 0
KPG1 131025Z 02008KT 10/M07 A3015 RMK A01 T00981071  RH  030%=      5-min Rain = 0
KPG1 131026Z 01009KT 10/M07 A3015 RMK A01 T00991070  RH  030%=      5-min Rain = 0
KPG1 131027Z 02008KT 10/M07 A3015 RMK A01 T01021068  RH  029%=      5-min Rain = 0
KPG1 131028Z 02010KT 11/M07 A3015 RMK A01 T01051068  RH  029%=      5-min Rain = 0
KPG1 131029Z 02008KT 11/M07 A3015 RMK A01 T01061069  RH  029%=      5-min Rain = 0
KPG1 131030Z 03008KT 11/M07 A3015 RMK A01 T01051071  RH  028%=      5-min Rain = 0
KPG1 131031Z 03008KT 10/M07 A3015 RMK A01 T01011072  RH  029%=      5-min Rain = 0
KPG1 131032Z 03009KT 10/M07 A3015 RMK A01 T00981073  RH  029%=      5-min Rain = 0
KPG1 131033Z 02009KT 10/M07 A3015 RMK A01 T00971072  RH  030%=      5-min Rain = 0
KPG1 131034Z 02008KT 10/M07 A3015 RMK A01 T00981071  RH  030%=      5-min Rain = 0
KPG1 131035Z 03008KT 10/M07 A3015 RMK A01 T01001070  RH  030%=      5-min Rain = 0
KPG1 131036Z 02008KT 10/M07 A3015 RMK A01 T01001071  RH  029%=      5-min Rain = 0
KPG1 131037Z 02009KT 10/M07 A3015 RMK A01 T00991071  RH  029%=      5-min Rain = 0
KPG1 131038Z 03008KT 10/M07 A3015 RMK A01 T00991071  RH  030%=      5-min Rain = 0
KPG1 131039Z 03008KT 10/M07 A3015 RMK A01 T01001070  RH  030%=      5-min Rain = 0
KPG1 131040Z 03008KT 10/M07 A3015 RMK A01 T00991070  RH  030%=      5-min Rain = 0
KPG1 131041Z 03009KT 10/M07 A3015 RMK A01 T00991071  RH  030%=      5-min Rain = 0
KPG1 131042Z 02008KT 10/M07 A3015 RMK A01 T00971071  RH  030%=      5-min Rain = 0
KPG1 131043Z 03008KT 10/M07 A3015 RMK A01 T00981070  RH  030%=      5-min Rain = 0
KPG1 131044Z 03008KT 10/M07 A3015 RMK A01 T00991070  RH  030%=      5-min Rain = 0
KPG1 131045Z 03007KT 10/M07 A3015 RMK A01 T00991070  RH  030%=      5-min Rain = 0
KPG1 131046Z 03007KT 10/M07 A3015 RMK A01 T00981071  RH  030%=      5-min Rain = 0
KPG1 131047Z 03007KT 10/M07 A3015 RMK A01 T00981070  RH  030%=      5-min Rain = 0
KPG1 131048Z 03006KT 10/M07 A3015 RMK A01 T00981070  RH  030%=      5-min Rain = 0
KPG1 131049Z 03007KT 10/M07 A3016 RMK A01 T00981070  RH  030%=      5-min Rain = 0
KPG1 131050Z 03007KT 10/M07 A3016 RMK A01 T00961071  RH  030%=      5-min Rain = 0
KPG1 131051Z 03007KT 10/M07 A3016 RMK A01 T00951071  RH  030%=      5-min Rain = 0
KPG1 131052Z 03006KT 10/M07 A3016 RMK A01 T00951071  RH  030%=      5-min Rain = 0
KPG1 131053Z 03007KT 09/M07 A3016 RMK A01 T00941071  RH  030%=      5-min Rain = 0
KPG1 131054Z 03006KT 09/M07 A3016 RMK A01 T00941071  RH  031%=      5-min Rain = 0
KPG1 131055Z 02006KT 09/M07 A3016 RMK A01 T00941071  RH  031%=      5-min Rain = 0
KPG1 131056Z 02006KT 09/M07 A3016 RMK A01 T00941071  RH  031%=      5-min Rain = 0
KPG1 131057Z 02006KT 10/M07 A3016 RMK A01 T00951070  RH  031%=      5-min Rain = 0
KPG1 131058Z 02005KT 10/M07 A3016 RMK A01 T00951070  RH  031%=      5-min Rain = 0
KPG1 131059Z 02006KT 09/M07 A3016 RMK A01 T00941071  RH  031%=      5-min Rain = 0
KPG1 131100Z 03006KT 09/M07 A3016 RMK A01 T00931071  RH  031%=      5-min Rain = 0
KPG1 131101Z 03007KT 09/M07 A3016 RMK A01 T00931070  RH  031%=      5-min Rain = 0
KPG1 131102Z 03007KT 10/M07 A3016 RMK A01 T00951070  RH  031%=      5-min Rain = 0
KPG1 131103Z 03007KT 10/M07 A3016 RMK A01 T00951070  RH  031%=      5-min Rain = 0
KPG1 131104Z 03006KT 10/M07 A3016 RMK A01 T00951070  RH  030%=      5-min Rain = 0
KPG1 131105Z 03008KT 10/M07 A3016 RMK A01 T00961070  RH  030%=      5-min Rain = 0
KPG1 131106Z 03008KT 10/M07 A3016 RMK A01 T00961070  RH  030%=      5-min Rain = 0
KPG1 131107Z 03008KT 10/M07 A3016 RMK A01 T00951070  RH  030%=      5-min Rain = 0
KPG1 131108Z 03008KT 10/M07 A3016 RMK A01 T00951070  RH  031%=      5-min Rain = 0
KPG1 131109Z 03008KT 10/M07 A3016 RMK A01 T00951070  RH  031%=      5-min Rain = 0
KPG1 131110Z 03008KT 10/M07 A3016 RMK A01 T00951069  RH  031%=      5-min Rain = 0
KPG1 131111Z 03008KT 10/M07 A3016 RMK A01 T00961070  RH  030%=      5-min Rain = 0
KPG1 131112Z 03008KT 10/M07 A3016 RMK A01 T00961069  RH  030%=      5-min Rain = 0
KPG1 131113Z 03009KT 10/M07 A3016 RMK A01 T00961070  RH  030%=      5-min Rain = 0
KPG1 131114Z 03009KT 10/M07 A3016 RMK A01 T00961070  RH  030%=      5-min Rain = 0
KPG1 131115Z 03008KT 10/M07 A3016 RMK A01 T00961070  RH  030%=      5-min Rain = 0
KPG1 131116Z 03008KT 10/M07 A3016 RMK A01 T00961069  RH  030%=      5-min Rain = 0
KPG1 131117Z 03009KT 10/M07 A3016 RMK A01 T00961070  RH  030%=      5-min Rain = 0
KPG1 131118Z 03009KT 10/M07 A3016 RMK A01 T00961070  RH  030%=      5-min Rain = 0
KPG1 131119Z 03008KT 10/M07 A3016 RMK A01 T00971069  RH  030%=      5-min Rain = 0
KPG1 131120Z 03009KT 10/M07 A3016 RMK A01 T00981069  RH  030%=      5-min Rain = 0
KPG1 131121Z 03009KT 10/M07 A3016 RMK A01 T00981070  RH  030%=      5-min Rain = 0
KPG1 131122Z 03009KT 10/M07 A3016 RMK A01 T00981070  RH  030%=      5-min Rain = 0
KPG1 131123Z 03009KT 10/M07 A3016 RMK A01 T00971070  RH  030%=      5-min Rain = 0
KPG1 131124Z 02010KT 10/M07 A3016 RMK A01 T00961070  RH  030%=      5-min Rain = 0
KPG1 131125Z 03009KT 10/M07 A3016 RMK A01 T00971070  RH  030%=      5-min Rain = 0
KPG1 131126Z 03010KT 10/M07 A3016 RMK A01 T00961070  RH  030%=      5-min Rain = 0
KPG1 131127Z 04010KT 10/M07 A3016 RMK A01 T00961070  RH  030%=      5-min Rain = 0
KPG1 131128Z 04009KT 10/M07 A3016 RMK A01 T00961070  RH  030%=      5-min Rain = 0
KPG1 131129Z 04010KT 10/M07 A3016 RMK A01 T00961069  RH  030%=      5-min Rain = 0
KPG1 131130Z 03010KT 10/M07 A3016 RMK A01 T00971070  RH  030%=      5-min Rain = 0
KPG1 131131Z 03010KT 10/M07 A3016 RMK A01 T00981070  RH  030%=      5-min Rain = 0
KPG1 131132Z 02010KT 10/M07 A3016 RMK A01 T00981070  RH  030%=      5-min Rain = 0
KPG1 131133Z 02011KT 10/M07 A3016 RMK A01 T00991070  RH  030%=      5-min Rain = 0
KPG1 131134Z 03011KT 10/M07 A3016 RMK A01 T00991070  RH  030%=      5-min Rain = 0
KPG1 131135Z 03011KT 10/M07 A3016 RMK A01 T01001069  RH  030%=      5-min Rain = 0
KPG1 131136Z 02011KT 10/M07 A3016 RMK A01 T00991070  RH  030%=      5-min Rain = 0
KPG1 131137Z 03011KT 10/M07 A3016 RMK A01 T00991070  RH  030%=      5-min Rain = 0
KPG1 131138Z 03011KT 10/M07 A3016 RMK A01 T00991070  RH  030%=      5-min Rain = 0
KPG1 131139Z 03011KT 10/M07 A3016 RMK A01 T00991070  RH  030%=      5-min Rain = 0
KPG1 131140Z 03010KT 10/M07 A3016 RMK A01 T00991070  RH  030%=      5-min Rain = 0
KPG1 131141Z 03009KT 10/M07 A3016 RMK A01 T00991070  RH  030%=      5-min Rain = 0
KPG1 131142Z 03011KT 10/M07 A3016 RMK A01 T00981070  RH  030%=      5-min Rain = 0
KPG1 131143Z 03011KT 10/M07 A3016 RMK A01 T00971071  RH  030%=      5-min Rain = 0
KPG1 131144Z 03011KT 10/M07 A3016 RMK A01 T00961071  RH  030%=      5-min Rain = 0
KPG1 131145Z 02012KT 10/M07 A3016 RMK A01 T00961070  RH  030%=      5-min Rain = 0
KPG1 131146Z 03013KT 10/M07 A3016 RMK A01 T00951070  RH  030%=      5-min Rain = 0
KPG1 131147Z 03011KT 10/M07 A3016 RMK A01 T00951070  RH  031%=      5-min Rain = 0
KPG1 131148Z 03012KT 10/M07 A3016 RMK A01 T00951070  RH  031%=      5-min Rain = 0
KPG1 131149Z 03011KT 10/M07 A3016 RMK A01 T00961069  RH  031%=      5-min Rain = 0
KPG1 131150Z 03011KT 10/M07 A3016 RMK A01 T00961070  RH  030%=      5-min Rain = 0
KPG1 131151Z 03013KT 10/M07 A3016 RMK A01 T00951070  RH  031%=      5-min Rain = 0
KPG1 131152Z 03012KT 10/M07 A3016 RMK A01 T00951070  RH  031%=      5-min Rain = 0
KPG1 131153Z 04012KT 10/M07 A3017 RMK A01 T00951069  RH  031%=      5-min Rain = 0
KPG1 131154Z 03011KT 10/M07 A3017 RMK A01 T00951069  RH  031%=      5-min Rain = 0
KPG1 131155Z 03011KT 10/M07 A3017 RMK A01 T00951069  RH  031%=      5-min Rain = 0
KPG1 131156Z 02013KT 10/M07 A3016 RMK A01 T00951069  RH  031%=      5-min Rain = 0
KPG1 131157Z 03013KT 10/M07 A3017 RMK A01 T00951070  RH  031%=      5-min Rain = 0
KPG1 131158Z 04012KT 10/M07 A3017 RMK A01 T00951070  RH  031%=      5-min Rain = 0
KPG1 131159Z 04013KT 10/M07 A3017 RMK A01 T00951070  RH  031%=      5-min Rain = 0
KPG1 131200Z 04015KT 10/M07 A3017 RMK A01 T00961068  RH  031%=      5-min Rain = 0
KPG1 131201Z 04014KT 10/M07 A3017 RMK A01 T00981067  RH  031%=      5-min Rain = 0
KPG1 131202Z 03013KT 10/M07 A3017 RMK A01 T00991068  RH  030%=      5-min Rain = 0
KPG1 131203Z 03013KT 10/M07 A3017 RMK A01 T00991069  RH  030%=      5-min Rain = 0
KPG1 131204Z 03012KT 10/M07 A3017 RMK A01 T00971070  RH  030%=      5-min Rain = 0
KPG1 131205Z 02013KT 10/M07 A3017 RMK A01 T00961071  RH  030%=      5-min Rain = 0
KPG1 131206Z 02013KT 09/M07 A3017 RMK A01 T00941071  RH  030%=      5-min Rain = 0
KPG1 131207Z 02014KT 09/M07 A3017 RMK A01 T00921071  RH  031%=      5-min Rain = 0
KPG1 131208Z 02013KT 09/M07 A3017 RMK A01 T00911071  RH  031%=      5-min Rain = 0
KPG1 131209Z 02012KT 09/M07 A3017 RMK A01 T00911071  RH  031%=      5-min Rain = 0
KPG1 131210Z 02014KT 09/M07 A3017 RMK A01 T00901071  RH  031%=      5-min Rain = 0
KPG1 131211Z 02014KT 09/M07 A3017 RMK A01 T00911070  RH  031%=      5-min Rain = 0
KPG1 131212Z 02014KT 09/M07 A3017 RMK A01 T00921069  RH  031%=      5-min Rain = 0
KPG1 131213Z 02014KT 09/M07 A3017 RMK A01 T00931069  RH  031%=      5-min Rain = 0
KPG1 131214Z 03015KT 09/M07 A3017 RMK A01 T00931069  RH  031%=      5-min Rain = 0
KPG1 131215Z 02014KT 09/M07 A3017 RMK A01 T00931069  RH  031%=      5-min Rain = 0
KPG1 131216Z 03014KT 09/M07 A3017 RMK A01 T00931069  RH  031%=      5-min Rain = 0
KPG1 131217Z 02013KT 09/M07 A3017 RMK A01 T00921069  RH  031%=      5-min Rain = 0
KPG1 131218Z 02013KT 09/M07 A3017 RMK A01 T00921070  RH  031%=      5-min Rain = 0
KPG1 131219Z 02013KT 09/M07 A3017 RMK A01 T00921071  RH  031%=      5-min Rain = 0
KPG1 131220Z 02013KT 09/M07 A3017 RMK A01 T00911071  RH  031%=      5-min Rain = 0
KPG1 131221Z 03013KT 09/M07 A3017 RMK A01 T00901071  RH  031%=      5-min Rain = 0
KPG1 131222Z 02013KT 09/M07 A3017 RMK A01 T00881072  RH  031%=      5-min Rain = 0
KPG1 131223Z 01013KT 09/M07 A3018 RMK A01 T00881071  RH  032%=      5-min Rain = 0
KPG1 131224Z 02013KT 09/M07 A3018 RMK A01 T00901069  RH  032%=      5-min Rain = 0
KPG1 131225Z 02014KT 09/M07 A3018 RMK A01 T00921069  RH  031%=      5-min Rain = 0
KPG1 131226Z 02013KT 09/M07 A3018 RMK A01 T00931069  RH  031%=      5-min Rain = 0
KPG1 131227Z 02012KT 09/M07 A3018 RMK A01 T00941068  RH  031%=      5-min Rain = 0
KPG1 131228Z 02012KT 09/M07 A3018 RMK A01 T00941069  RH  031%=      5-min Rain = 0
KPG1 131229Z 02012KT 09/M07 A3018 RMK A01 T00931070  RH  031%=      5-min Rain = 0
KPG1 131230Z 02012KT 09/M07 A3018 RMK A01 T00931070  RH  031%=      5-min Rain = 0
KPG1 131231Z 02012KT 09/M07 A3018 RMK A01 T00921070  RH  031%=      5-min Rain = 0
KPG1 131232Z 02011KT 09/M07 A3018 RMK A01 T00891072  RH  031%=      5-min Rain = 0
KPG1 131233Z 02012KT 09/M07 A3018 RMK A01 T00881071  RH  032%=      5-min Rain = 0
KPG1 131234Z 02012KT 09/M07 A3018 RMK A01 T00901068  RH  032%=      5-min Rain = 0
KPG1 131235Z 02013KT 09/M07 A3018 RMK A01 T00931068  RH  032%=      5-min Rain = 0
KPG1 131236Z 02012KT 09/M07 A3018 RMK A01 T00941068  RH  031%=      5-min Rain = 0
KPG1 131237Z 02013KT 09/M07 A3018 RMK A01 T00941068  RH  031%=      5-min Rain = 0
KPG1 131238Z 02015KT 09/M07 A3018 RMK A01 T00941068  RH  031%=      5-min Rain = 0
KPG1 131239Z 02014KT 09/M07 A3018 RMK A01 T00941068  RH  031%=      5-min Rain = 0
KPG1 131240Z 02013KT 09/M07 A3018 RMK A01 T00931068  RH  031%=      5-min Rain = 0
KPG1 131241Z 02011KT 09/M07 A3018 RMK A01 T00931068  RH  031%=      5-min Rain = 0
KPG1 131242Z 02013KT 09/M07 A3018 RMK A01 T00921069  RH  031%=      5-min Rain = 0
KPG1 131243Z 02013KT 09/M07 A3018 RMK A01 T00911069  RH  032%=      5-min Rain = 0
KPG1 131244Z 03012KT 09/M07 A3018 RMK A01 T00901069  RH  032%=      5-min Rain = 0
KPG1 131245Z 02011KT 09/M07 A3018 RMK A01 T00901069  RH  032%=      5-min Rain = 0
KPG1 131246Z 02013KT 09/M07 A3018 RMK A01 T00881070  RH  032%=      5-min Rain = 0
KPG1 131247Z 02012KT 09/M07 A3018 RMK A01 T00881069  RH  032%=      5-min Rain = 0
KPG1 131248Z 03011KT 09/M07 A3018 RMK A01 T00891069  RH  032%=      5-min Rain = 0
KPG1 131249Z 02012KT 09/M07 A3018 RMK A01 T00881069  RH  032%=      5-min Rain = 0
KPG1 131250Z 02011KT 09/M07 A3018 RMK A01 T00861070  RH  032%=      5-min Rain = 0
KPG1 131251Z 02012KT 09/M07 A3018 RMK A01 T00851070  RH  033%=      5-min Rain = 0
KPG1 131252Z 02012KT 09/M07 A3018 RMK A01 T00851070  RH  033%=      5-min Rain = 0
KPG1 131253Z 02013KT 09/M07 A3018 RMK A01 T00851069  RH  033%=      5-min Rain = 0
KPG1 131254Z 02012KT 09/M07 A3018 RMK A01 T00881068  RH  033%=      5-min Rain = 0
KPG1 131255Z 01013KT 09/M07 A3018 RMK A01 T00911067  RH  032%=      5-min Rain = 0
KPG1 131256Z 02014KT 09/M07 A3018 RMK A01 T00931067  RH  032%=      5-min Rain = 0
KPG1 131257Z 02013KT 09/M07 A3018 RMK A01 T00941067  RH  032%=      5-min Rain = 0
KPG1 131258Z 02011KT 10/M07 A3018 RMK A01 T00951067  RH  031%=      5-min Rain = 0
KPG1 131259Z 02014KT 10/M07 A3018 RMK A01 T00951067  RH  031%=      5-min Rain = 0
KPG1 131300Z 02012KT 10/M07 A3018 RMK A01 T00951067  RH  031%=      5-min Rain = 0
KPG1 131301Z 03011KT 09/M07 A3018 RMK A01 T00931068  RH  031%=      5-min Rain = 0
KPG1 131302Z 03010KT 09/M07 A3018 RMK A01 T00911070  RH  031%=      5-min Rain = 0
KPG1 131303Z 03011KT 09/M07 A3018 RMK A01 T00881070  RH  032%=      5-min Rain = 0
KPG1 131304Z 03011KT 09/M07 A3018 RMK A01 T00871069  RH  032%=      5-min Rain = 0
KPG1 131305Z 03011KT 09/M07 A3018 RMK A01 T00871069  RH  032%=      5-min Rain = 0
KPG1 131306Z 03011KT 09/M07 A3019 RMK A01 T00861069  RH  033%=      5-min Rain = 0
KPG1 131307Z 02011KT 09/M07 A3019 RMK A01 T00851069  RH  033%=      5-min Rain = 0
KPG1 131308Z 02011KT 09/M07 A3019 RMK A01 T00851069  RH  033%=      5-min Rain = 0
KPG1 131309Z 02013KT 09/M07 A3019 RMK A01 T00871067  RH  033%=      5-min Rain = 0
KPG1 131310Z 03011KT 09/M07 A3019 RMK A01 T00881067  RH  033%=      5-min Rain = 0
KPG1 131311Z 03012KT 09/M07 A3019 RMK A01 T00881068  RH  032%=      5-min Rain = 0
KPG1 131312Z 03012KT 09/M07 A3019 RMK A01 T00871069  RH  033%=      5-min Rain = 0
KPG1 131313Z 03012KT 09/M07 A3019 RMK A01 T00871068  RH  033%=      5-min Rain = 0
KPG1 131314Z 03012KT 09/M07 A3019 RMK A01 T00871069  RH  033%=      5-min Rain = 0
KPG1 131315Z 03012KT 09/M07 A3019 RMK A01 T00861069  RH  033%=      5-min Rain = 0
KPG1 131316Z 03012KT 09/M07 A3019 RMK A01 T00861069  RH  033%=      5-min Rain = 0
KPG1 131317Z 03011KT 09/M07 A3019 RMK A01 T00861069  RH  033%=      5-min Rain = 0
KPG1 131318Z 03011KT 09/M07 A3019 RMK A01 T00861069  RH  033%=      5-min Rain = 0
KPG1 131319Z 03011KT 09/M07 A3019 RMK A01 T00861069  RH  033%=      5-min Rain = 0
KPG1 131320Z 03012KT 09/M07 A3019 RMK A01 T00861068  RH  033%=      5-min Rain = 0
KPG1 131321Z 03011KT 09/M07 A3019 RMK A01 T00861068  RH  033%=      5-min Rain = 0
KPG1 131322Z 03011KT 09/M07 A3019 RMK A01 T00851069  RH  033%=      5-min Rain = 0
KPG1 131323Z 03010KT 09/M07 A3019 RMK A01 T00851069  RH  033%=      5-min Rain = 0
KPG1 131324Z 03010KT 08/M07 A3019 RMK A01 T00841069  RH  033%=      5-min Rain = 0
KPG1 131325Z 03011KT 08/M07 A3019 RMK A01 T00841069  RH  033%=      5-min Rain = 0
KPG1 131326Z 03010KT 08/M07 A3019 RMK A01 T00841068  RH  033%=      5-min Rain = 0
KPG1 131327Z 03010KT 08/M07 A3019 RMK A01 T00841069  RH  033%=      5-min Rain = 0
KPG1 131328Z 03010KT 08/M07 A3019 RMK A01 T00841069  RH  033%=      5-min Rain = 0
KPG1 131329Z 02011KT 08/M07 A3019 RMK A01 T00841069  RH  033%=      5-min Rain = 0
KPG1 131330Z 02011KT 09/M07 A3019 RMK A01 T00851068  RH  033%=      5-min Rain = 0
KPG1 131331Z 02011KT 09/M07 A3019 RMK A01 T00871067  RH  033%=      5-min Rain = 0
KPG1 131332Z 02011KT 09/M07 A3019 RMK A01 T00901066  RH  033%=      5-min Rain = 0
KPG1 131333Z 02012KT 09/M07 A302 RMK A01 T00921066  RH  032%=      5-min Rain = 0
KPG1 131334Z 02012KT 09/M07 A302 RMK A01 T00941066  RH  032%=      5-min Rain = 0
KPG1 131335Z 02012KT 09/M07 A302 RMK A01 T00941067  RH  031%=      5-min Rain = 0
KPG1 131336Z 01012KT 10/M07 A302 RMK A01 T00951067  RH  031%=      5-min Rain = 0
KPG1 131337Z 02012KT 10/M07 A302 RMK A01 T00951067  RH  031%=      5-min Rain = 0
KPG1 131338Z 02013KT 10/M07 A302 RMK A01 T00951067  RH  031%=      5-min Rain = 0
KPG1 131339Z 02011KT 10/M07 A302 RMK A01 T00961067  RH  031%=      5-min Rain = 0
KPG1 131340Z 02010KT 10/M07 A302 RMK A01 T00951067  RH  031%=      5-min Rain = 0
KPG1 131341Z 02010KT 09/M07 A302 RMK A01 T00941068  RH  031%=      5-min Rain = 0
KPG1 131342Z 02011KT 09/M07 A302 RMK A01 T00921068  RH  032%=      5-min Rain = 0
KPG1 131343Z 02010KT 09/M07 A302 RMK A01 T00921068  RH  032%=      5-min Rain = 0
KPG1 131344Z 03011KT 09/M07 A302 RMK A01 T00921067  RH  032%=      5-min Rain = 0
KPG1 131345Z 03011KT 09/M07 A302 RMK A01 T00911067  RH  032%=      5-min Rain = 0
KPG1 131346Z 03011KT 09/M07 A302 RMK A01 T00911067  RH  032%=      5-min Rain = 0
KPG1 131347Z 03012KT 09/M07 A302 RMK A01 T00911067  RH  032%=      5-min Rain = 0
KPG1 131348Z 03012KT 09/M07 A302 RMK A01 T00921067  RH  032%=      5-min Rain = 0
KPG1 131349Z 02011KT 09/M07 A302 RMK A01 T00921066  RH  032%=      5-min Rain = 0
KPG1 131350Z 03011KT 09/M07 A302 RMK A01 T00931066  RH  032%=      5-min Rain = 0
KPG1 131351Z 02012KT 09/M07 A302 RMK A01 T00941066  RH  032%=      5-min Rain = 0
KPG1 131352Z 02011KT 10/M07 A302 RMK A01 T00951066  RH  032%=      5-min Rain = 0
KPG1 131353Z 02011KT 10/M07 A302 RMK A01 T00961066  RH  031%=      5-min Rain = 0
KPG1 131354Z 03011KT 10/M07 A302 RMK A01 T00971066  RH  031%=      5-min Rain = 0
KPG1 131355Z 03013KT 10/M07 A302 RMK A01 T00971066  RH  031%=      5-min Rain = 0
KPG1 131356Z 03012KT 10/M07 A302 RMK A01 T00981066  RH  031%=      5-min Rain = 0
KPG1 131357Z 03011KT 10/M07 A302 RMK A01 T00981066  RH  031%=      5-min Rain = 0
KPG1 131358Z 04013KT 10/M07 A302 RMK A01 T00981066  RH  031%=      5-min Rain = 0
KPG1 131359Z 03012KT 10/M07 A302 RMK A01 T00981066  RH  031%=      5-min Rain = 0
KPG1 131400Z 04011KT 10/M07 A302 RMK A01 T00981066  RH  031%=      5-min Rain = 0
KPG1 131401Z 04011KT 10/M07 A302 RMK A01 T00981066  RH  031%=      5-min Rain = 0
KPG1 131402Z 04012KT 10/M07 A3021 RMK A01 T00981067  RH  031%=      5-min Rain = 0
KPG1 131403Z 04011KT 10/M07 A3021 RMK A01 T00981067  RH  031%=      5-min Rain = 0
KPG1 131404Z 04011KT 10/M07 A3021 RMK A01 T00981067  RH  031%=      5-min Rain = 0
KPG1 131405Z 04012KT 10/M07 A3021 RMK A01 T00981067  RH  031%=      5-min Rain = 0
KPG1 131406Z 04012KT 10/M07 A3021 RMK A01 T00991067  RH  031%=      5-min Rain = 0
KPG1 131407Z 04012KT 10/M07 A3021 RMK A01 T00991067  RH  031%=      5-min Rain = 0
KPG1 131408Z 04011KT 10/M07 A3021 RMK A01 T01001066  RH  030%=      5-min Rain = 0
KPG1 131409Z 04013KT 10/M07 A3021 RMK A01 T01011066  RH  030%=      5-min Rain = 0
KPG1 131410Z 04013KT 10/M07 A3021 RMK A01 T01021066  RH  030%=      5-min Rain = 0
KPG1 131411Z 04013KT 10/M07 A3021 RMK A01 T01031066  RH  030%=      5-min Rain = 0
KPG1 131412Z 03014KT 10/M07 A3021 RMK A01 T01031066  RH  030%=      5-min Rain = 0
KPG1 131413Z 03011KT 10/M07 A3021 RMK A01 T01041065  RH  030%=      5-min Rain = 0
KPG1 131414Z 04012KT 11/M07 A3021 RMK A01 T01051065  RH  030%=      5-min Rain = 0
KPG1 131415Z 04014KT 11/M07 A3021 RMK A01 T01051065  RH  030%=      5-min Rain = 0
KPG1 131416Z 04013KT 11/M07 A3021 RMK A01 T01061065  RH  029%=      5-min Rain = 0
KPG1 131417Z 04013KT 11/M07 A3021 RMK A01 T01061065  RH  029%=      5-min Rain = 0
KPG1 131418Z 04015KT 11/M06 A3021 RMK A01 T01061064  RH  030%=      5-min Rain = 0
KPG1 131419Z 04014KT 11/M06 A3021 RMK A01 T01061063  RH  030%=      5-min Rain = 0
KPG1 131420Z 04016KT 11/M06 A3021 RMK A01 T01061063  RH  030%=      5-min Rain = 0
KPG1 131421Z 04016KT 11/M06 A3021 RMK A01 T01061063  RH  030%=      5-min Rain = 0
KPG1 131422Z 04014KT 11/M06 A3021 RMK A01 T01061063  RH  030%=      5-min Rain = 0
KPG1 131423Z 04014KT 11/M06 A3021 RMK A01 T01061063  RH  030%=      5-min Rain = 0
KPG1 131424Z 04015KT 11/M06 A3021 RMK A01 T01061063  RH  030%=      5-min Rain = 0
KPG1 131425Z 04014KT 11/M06 A3021 RMK A01 T01061063  RH  030%=      5-min Rain = 0
KPG1 131426Z 04014KT 11/M06 A3021 RMK A01 T01061063  RH  030%=      5-min Rain = 0
KPG1 131427Z 04012KT 11/M06 A3021 RMK A01 T01061063  RH  030%=      5-min Rain = 0
KPG1 131428Z 04013KT 11/M06 A3021 RMK A01 T01071063  RH  030%=      5-min Rain = 0
KPG1 131429Z 04014KT 11/M06 A3021 RMK A01 T01081064  RH  029%=      5-min Rain = 0
KPG1 131430Z 04013KT 11/M06 A3021 RMK A01 T01081064  RH  029%=      5-min Rain = 0
KPG1 131431Z 04012KT 11/M06 A3021 RMK A01 T01081064  RH  029%=      5-min Rain = 0
KPG1 131432Z 04013KT 11/M06 A3021 RMK A01 T01081064  RH  029%=      5-min Rain = 0
KPG1 131433Z 04012KT 11/M06 A3021 RMK A01 T01081064  RH  029%=      5-min Rain = 0
KPG1 131434Z 04013KT 11/M06 A3021 RMK A01 T01081063  RH  029%=      5-min Rain = 0
KPG1 131435Z 04013KT 11/M06 A3021 RMK A01 T01081063  RH  029%=      5-min Rain = 0
KPG1 131436Z 03015KT 11/M06 A3021 RMK A01 T01091064  RH  029%=      5-min Rain = 0
KPG1 131437Z 03014KT 11/M06 A3021 RMK A01 T01091063  RH  029%=      5-min Rain = 0
KPG1 131438Z 04013KT 11/M06 A3021 RMK A01 T01091063  RH  029%=      5-min Rain = 0
KPG1 131439Z 04013KT 11/M06 A3021 RMK A01 T01081063  RH  029%=      5-min Rain = 0
KPG1 131440Z 05014KT 11/M06 A3021 RMK A01 T01091062  RH  029%=      5-min Rain = 0
KPG1 131441Z 04014KT 11/M06 A3021 RMK A01 T01091064  RH  029%=      5-min Rain = 0
KPG1 131442Z 04013KT 11/M06 A3021 RMK A01 T01091064  RH  029%=      5-min Rain = 0
KPG1 131443Z 04012KT 11/M06 A3022 RMK A01 T01091064  RH  029%=      5-min Rain = 0
KPG1 131444Z 04013KT 11/M06 A3022 RMK A01 T01101063  RH  029%=      5-min Rain = 0
KPG1 131445Z 04013KT 11/M06 A3022 RMK A01 T01111064  RH  029%=      5-min Rain = 0
KPG1 131446Z 04013KT 11/M06 A3022 RMK A01 T01111063  RH  029%=      5-min Rain = 0
KPG1 131447Z 04013KT 11/M06 A3022 RMK A01 T01101063  RH  029%=      5-min Rain = 0
KPG1 131448Z 04012KT 11/M06 A3022 RMK A01 T01101062  RH  029%=      5-min Rain = 0
KPG1 131449Z 04013KT 11/M06 A3022 RMK A01 T01101062  RH  029%=      5-min Rain = 0
KPG1 131450Z 04012KT 11/M06 A3022 RMK A01 T01101063  RH  029%=      5-min Rain = 0
KPG1 131451Z 05012KT 11/M06 A3022 RMK A01 T01091064  RH  029%=      5-min Rain = 0
KPG1 131452Z 05011KT 11/M06 A3022 RMK A01 T01091063  RH  029%=      5-min Rain = 0
KPG1 131453Z 04010KT 11/M06 A3022 RMK A01 T01101063  RH  029%=      5-min Rain = 0
KPG1 131454Z 04012KT 11/M06 A3022 RMK A01 T01111063  RH  029%=      5-min Rain = 0
KPG1 131455Z 04012KT 11/M06 A3022 RMK A01 T01121063  RH  029%=      5-min Rain = 0
KPG1 131456Z 03011KT 11/M06 A3022 RMK A01 T01131063  RH  029%=      5-min Rain = 0
KPG1 131457Z 04012KT 11/M06 A3022 RMK A01 T01141062  RH  028%=      5-min Rain = 0
KPG1 131458Z 03009KT 12/M06 A3022 RMK A01 T01151063  RH  028%=      5-min Rain = 0
KPG1 131459Z 04011KT 12/M06 A3022 RMK A01 T01151062  RH  028%=      5-min Rain = 0
KPG1 131500Z 04012KT 12/M06 A3022 RMK A01 T01161062  RH  028%=      5-min Rain = 0
KPG1 131501Z 04012KT 12/M06 A3022 RMK A01 T01151062  RH  028%=      5-min Rain = 0
KPG1 131502Z 03011KT 11/M06 A3022 RMK A01 T01131063  RH  029%=      5-min Rain = 0
KPG1 131503Z 04012KT 11/M06 A3022 RMK A01 T01141061  RH  029%=      5-min Rain = 0
KPG1 131504Z 04011KT 12/M06 A3022 RMK A01 T01151061  RH  029%=      5-min Rain = 0
KPG1 131505Z 04013KT 12/M06 A3022 RMK A01 T01161061  RH  029%=      5-min Rain = 0
KPG1 131506Z 04012KT 12/M06 A3022 RMK A01 T01171061  RH  028%=      5-min Rain = 0
KPG1 131507Z 05013KT 12/M06 A3023 RMK A01 T01171061  RH  028%=      5-min Rain = 0
KPG1 131508Z 05012KT 12/M06 A3023 RMK A01 T01161062  RH  028%=      5-min Rain = 0
KPG1 131509Z 04013KT 12/M06 A3023 RMK A01 T01151062  RH  029%=      5-min Rain = 0
KPG1 131510Z 04013KT 11/M06 A3023 RMK A01 T01141061  RH  029%=      5-min Rain = 0
KPG1 131511Z 04012KT 11/M06 A3023 RMK A01 T01131062  RH  029%=      5-min Rain = 0
KPG1 131512Z 04010KT 11/M06 A3023 RMK A01 T01121062  RH  029%=      5-min Rain = 0
KPG1 131513Z 04012KT 11/M06 A3023 RMK A01 T01131061  RH  029%=      5-min Rain = 0
KPG1 131514Z 04011KT 11/M06 A3023 RMK A01 T01141061  RH  029%=      5-min Rain = 0
KPG1 131515Z 05012KT 12/M06 A3023 RMK A01 T01151061  RH  029%=      5-min Rain = 0
KPG1 131516Z 05011KT 12/M06 A3023 RMK A01 T01151062  RH  028%=      5-min Rain = 0
KPG1 131517Z 05012KT 12/M06 A3023 RMK A01 T01151062  RH  028%=      5-min Rain = 0
KPG1 131518Z 04010KT 12/M06 A3023 RMK A01 T01151063  RH  028%=      5-min Rain = 0
KPG1 131519Z 03010G15KT 12/M06 A3023 RMK A01 T01151063  RH  028%=      5-min Rain = 0
KPG1 131520Z 04013KT 12/M06 A3023 RMK A01 T01161062  RH  028%=      5-min Rain = 0
KPG1 131521Z 05010KT 12/M06 A3023 RMK A01 T01151063  RH  028%=      5-min Rain = 0
KPG1 131522Z 04009KT 12/M06 A3023 RMK A01 T01171061  RH  028%=      5-min Rain = 0
KPG1 131523Z 03012KT 12/M06 A3023 RMK A01 T01201060  RH  028%=      5-min Rain = 0
KPG1 131524Z 03012KT 12/M06 A3023 RMK A01 T01211060  RH  028%=      5-min Rain = 0
KPG1 131525Z 03011KT 12/M06 A3023 RMK A01 T01191061  RH  028%=      5-min Rain = 0
KPG1 131526Z 04011KT 12/M06 A3023 RMK A01 T01181061  RH  028%=      5-min Rain = 0
KPG1 131527Z 04013KT 12/M06 A3023 RMK A01 T01181061  RH  028%=      5-min Rain = 0
KPG1 131528Z 04013KT 12/M06 A3023 RMK A01 T01171062  RH  028%=      5-min Rain = 0
KPG1 131529Z 03012KT 12/M06 A3023 RMK A01 T01171061  RH  028%=      5-min Rain = 0
KPG1 131530Z 03011KT 12/M06 A3023 RMK A01 T01171060  RH  028%=      5-min Rain = 0
KPG1 131531Z 05013KT 12/M06 A3023 RMK A01 T01181060  RH  028%=      5-min Rain = 0
KPG1 131532Z 05012KT 12/M06 A3023 RMK A01 T01171061  RH  028%=      5-min Rain = 0
KPG1 131533Z 05012KT 12/M06 A3022 RMK A01 T01171061  RH  028%=      5-min Rain = 0
KPG1 131534Z 04012KT 12/M06 A3022 RMK A01 T01161061  RH  029%=      5-min Rain = 0
KPG1 131535Z 05012KT 12/M06 A3022 RMK A01 T01161060  RH  029%=      5-min Rain = 0
KPG1 131536Z 05011KT 12/M06 A3022 RMK A01 T01171059  RH  029%=      5-min Rain = 0
KPG1 131537Z 06012KT 12/M06 A3022 RMK A01 T01191058  RH  028%=      5-min Rain = 0
KPG1 131538Z 04010KT 12/M06 A3022 RMK A01 T01201058  RH  028%=      5-min Rain = 0
KPG1 131539Z 04012KT 12/M06 A3022 RMK A01 T01231056  RH  028%=      5-min Rain = 0
KPG1 131540Z 05012KT 13/M06 A3022 RMK A01 T01251056  RH  028%=      5-min Rain = 0
KPG1 131541Z 04012KT 12/M06 A3022 RMK A01 T01241058  RH  028%=      5-min Rain = 0
KPG1 131542Z 03013KT 12/M06 A3022 RMK A01 T01231058  RH  028%=      5-min Rain = 0
KPG1 131543Z 04013KT 12/M06 A3022 RMK A01 T01231057  RH  028%=      5-min Rain = 0
KPG1 131544Z 03014KT 12/M06 A3022 RMK A01 T01231055  RH  028%=      5-min Rain = 0
KPG1 131545Z 03015KT 12/M06 A3022 RMK A01 T01231055  RH  028%=      5-min Rain = 0
KPG1 131546Z 03014KT 12/M06 A3023 RMK A01 T01211057  RH  028%=      5-min Rain = 0
KPG1 131547Z 03015KT 12/M06 A3023 RMK A01 T01211055  RH  029%=      5-min Rain = 0
KPG1 131548Z 03016KT 12/M06 A3023 RMK A01 T01211055  RH  029%=      5-min Rain = 0
KPG1 131549Z 04015KT 12/M05 A3023 RMK A01 T01211054  RH  029%=      5-min Rain = 0
KPG1 131550Z 04015KT 12/M05 A3023 RMK A01 T01211053  RH  029%=      5-min Rain = 0
KPG1 131551Z 04014KT 12/M05 A3023 RMK A01 T01231052  RH  029%=      5-min Rain = 0
KPG1 131552Z 04015KT 12/M05 A3023 RMK A01 T01231052  RH  029%=      5-min Rain = 0
KPG1 131553Z 03013KT 12/M05 A3023 RMK A01 T01231052  RH  029%=      5-min Rain = 0
KPG1 131554Z 03015KT 12/M05 A3023 RMK A01 T01221051  RH  029%=      5-min Rain = 0
KPG1 131555Z 04013KT 12/M05 A3023 RMK A01 T01221051  RH  029%=      5-min Rain = 0
KPG1 131556Z 04013KT 12/M05 A3023 RMK A01 T01211052  RH  030%=      5-min Rain = 0
KPG1 131557Z 04012KT 12/M05 A3023 RMK A01 T01231050  RH  030%=      5-min Rain = 0
KPG1 131558Z 04012KT 13/M05 A3023 RMK A01 T01251049  RH  029%=      5-min Rain = 0
KPG1 131559Z 04012KT 13/M05 A3023 RMK A01 T01251050  RH  029%=      5-min Rain = 0
KPG1 131600Z 04011KT 13/M05 A3023 RMK A01 T01261048  RH  029%=      5-min Rain = 0
KPG1 131601Z 05011KT 13/M05 A3023 RMK A01 T01281048  RH  029%=      5-min Rain = 0
KPG1 131602Z 06011KT 13/M05 A3023 RMK A01 T01271049  RH  029%=      5-min Rain = 0
KPG1 131603Z 07013KT 13/M05 A3023 RMK A01 T01281049  RH  029%=      5-min Rain = 0
KPG1 131604Z 06013KT 13/M05 A3023 RMK A01 T01271050  RH  029%=      5-min Rain = 0
KPG1 131605Z 05012KT 13/M05 A3023 RMK A01 T01281049  RH  029%=      5-min Rain = 0
KPG1 131606Z 06012KT 13/M05 A3023 RMK A01 T01291049  RH  029%=      5-min Rain = 0
KPG1 131607Z 07013KT 13/M05 A3023 RMK A01 T01291049  RH  029%=      5-min Rain = 0
KPG1 131608Z 05010KT 13/M05 A3023 RMK A01 T01301048  RH  029%=      5-min Rain = 0
KPG1 131609Z 03012KT 13/M05 A3023 RMK A01 T01331047  RH  028%=      5-min Rain = 0
KPG1 131610Z 03014G19KT 13/M05 A3023 RMK A01 T01341048  RH  028%=      5-min Rain = 0
KPG1 131611Z 04015KT 13/M05 A3023 RMK A01 T01331048  RH  028%=      5-min Rain = 0
KPG1 131612Z 03015KT 13/M05 A3023 RMK A01 T01321049  RH  028%=      5-min Rain = 0
KPG1 131613Z 04014KT 13/M05 A3023 RMK A01 T01311049  RH  028%=      5-min Rain = 0
KPG1 131614Z 05011KT 13/M05 A3023 RMK A01 T01301048  RH  029%=      5-min Rain = 0
KPG1 131615Z 06012KT 13/M05 A3023 RMK A01 T01321047  RH  028%=      5-min Rain = 0
KPG1 131616Z 03012KT 13/M05 A3023 RMK A01 T01321048  RH  028%=      5-min Rain = 0
KPG1 131617Z 04014KT 13/M05 A3023 RMK A01 T01331047  RH  028%=      5-min Rain = 0
KPG1 131618Z 05012KT 13/M05 A3023 RMK A01 T01341047  RH  028%=      5-min Rain = 0
KPG1 131619Z 04013KT 14/M05 A3023 RMK A01 T01351047  RH  028%=      5-min Rain = 0
KPG1 131620Z 04014KT 14/M05 A3023 RMK A01 T01351047  RH  028%=      5-min Rain = 0
KPG1 131621Z 03012KT 13/M05 A3023 RMK A01 T01341047  RH  028%=      5-min Rain = 0
KPG1 131622Z 04013KT 13/M05 A3023 RMK A01 T01341047  RH  028%=      5-min Rain = 0
KPG1 131623Z 04013KT 13/M05 A3023 RMK A01 T01341047  RH  028%=      5-min Rain = 0
KPG1 131624Z 04012KT 13/M05 A3023 RMK A01 T01341047  RH  028%=      5-min Rain = 0
KPG1 131625Z 02013KT 13/M05 A3023 RMK A01 T01341046  RH  028%=      5-min Rain = 0
KPG1 131626Z 02014KT 14/M05 A3023 RMK A01 T01371045  RH  028%=      5-min Rain = 0
KPG1 131627Z 03013KT 14/M05 A3023 RMK A01 T01371046  RH  028%=      5-min Rain = 0
KPG1 131628Z 04012KT 14/M05 A3023 RMK A01 T01371046  RH  028%=      5-min Rain = 0
KPG1 131629Z 03012KT 14/M05 A3023 RMK A01 T01371046  RH  028%=      5-min Rain = 0
KPG1 131630Z 04012KT 14/M05 A3023 RMK A01 T01391046  RH  027%=      5-min Rain = 0
KPG1 131631Z 06012KT 14/M05 A3023 RMK A01 T01381046  RH  027%=      5-min Rain = 0
KPG1 131632Z 06012KT 14/M05 A3023 RMK A01 T01401045  RH  027%=      5-min Rain = 0
KPG1 131633Z 04011KT 14/M04 A3023 RMK A01 T01421044  RH  027%=      5-min Rain = 0
KPG1 131634Z 04011KT 14/M05 A3023 RMK A01 T01441045  RH  027%=      5-min Rain = 0
KPG1 131635Z 06011KT 14/M05 A3023 RMK A01 T01441045  RH  027%=      5-min Rain = 0
KPG1 131636Z 06012KT 15/M05 A3023 RMK A01 T01451046  RH  026%=      5-min Rain = 0
KPG1 131637Z 07012KT 15/M05 A3023 RMK A01 T01451047  RH  026%=      5-min Rain = 0
KPG1 131638Z 07016KT 14/M05 A3023 RMK A01 T01441048  RH  026%=      5-min Rain = 0
KPG1 131639Z 07015KT 14/M05 A3023 RMK A01 T01411049  RH  026%=      5-min Rain = 0
KPG1 131640Z 07012KT 14/M05 A3023 RMK A01 T01391049  RH  027%=      5-min Rain = 0
KPG1 131641Z 07011KT 14/M05 A3023 RMK A01 T01401047  RH  027%=      5-min Rain = 0
KPG1 131642Z 05013KT 14/M05 A3023 RMK A01 T01411047  RH  027%=      5-min Rain = 0
KPG1 131643Z 04015KT 14/M05 A3023 RMK A01 T01421047  RH  027%=      5-min Rain = 0
KPG1 131644Z 03011KT 14/M05 A3023 RMK A01 T01391049  RH  027%=      5-min Rain = 0
KPG1 131645Z 07010KT 14/M05 A3023 RMK A01 T01381047  RH  027%=      5-min Rain = 0
KPG1 131646Z 06012KT 14/M05 A3023 RMK A01 T01401046  RH  027%=      5-min Rain = 0
KPG1 131647Z 06012KT 14/M05 A3023 RMK A01 T01431045  RH  027%=      5-min Rain = 0
KPG1 131648Z 06011KT 14/M05 A3023 RMK A01 T01431047  RH  027%=      5-min Rain = 0
KPG1 131649Z 06013KT 14/M05 A3023 RMK A01 T01411047  RH  027%=      5-min Rain = 0
KPG1 131650Z 05010KT 15/M04 A3023 RMK A01 T01451044  RH  027%=      5-min Rain = 0
KPG1 131651Z 05009KT 15/M04 A3023 RMK A01 T01491043  RH  026%=      5-min Rain = 0
KPG1 131652Z 05009KT 15/M04 A3023 RMK A01 T01511044  RH  026%=      5-min Rain = 0
KPG1 131653Z 05010KT 15/M04 A3023 RMK A01 T01511043  RH  026%=      5-min Rain = 0
KPG1 131654Z 06011KT 15/M04 A3023 RMK A01 T01531044  RH  026%=      5-min Rain = 0
KPG1 131655Z 05010KT 15/M05 A3023 RMK A01 T01511045  RH  026%=      5-min Rain = 0
KPG1 131656Z 03011KT 15/M05 A3023 RMK A01 T01511045  RH  026%=      5-min Rain = 0
KPG1 131657Z 03013KT 15/M05 A3023 RMK A01 T01501046  RH  026%=      5-min Rain = 0
KPG1 131658Z 03015KT 15/M05 A3023 RMK A01 T01501046  RH  026%=      5-min Rain = 0
KPG1 131659Z 04012KT 15/M05 A3023 RMK A01 T01481047  RH  026%=      5-min Rain = 0
KPG1 131700Z 04010KT 15/M05 A3023 RMK A01 T01481047  RH  026%=      5-min Rain = 0
KPG1 131701Z 03011KT 15/M05 A3023 RMK A01 T01471047  RH  026%=      5-min Rain = 0
KPG1 131702Z 03010KT 15/M05 A3023 RMK A01 T01471047  RH  026%=      5-min Rain = 0
KPG1 131703Z 04011KT 15/M05 A3023 RMK A01 T01481046  RH  026%=      5-min Rain = 0
KPG1 131704Z 04009KT 15/M05 A3023 RMK A01 T01481047  RH  026%=      5-min Rain = 0
KPG1 131705Z 06013KT 15/M05 A3023 RMK A01 T01481047  RH  026%=      5-min Rain = 0
KPG1 131706Z 04011KT 15/M05 A3023 RMK A01 T01491047  RH  026%=      5-min Rain = 0
KPG1 131707Z 04012KT 15/M04 A3023 RMK A01 T01511044  RH  026%=      5-min Rain = 0
KPG1 131708Z 04014KT 15/M05 A3023 RMK A01 T01541046  RH  025%=      5-min Rain = 0
KPG1 131709Z 03011KT 15/M05 A3023 RMK A01 T01501049  RH  025%=      5-min Rain = 0
KPG1 131710Z 03012KT 15/M05 A3023 RMK A01 T01481048  RH  025%=      5-min Rain = 0
KPG1 131711Z 05009KT 15/M05 A3023 RMK A01 T01481047  RH  026%=      5-min Rain = 0
KPG1 131712Z 08012KT 15/M05 A3023 RMK A01 T01471047  RH  026%=      5-min Rain = 0
KPG1 131713Z 07011KT 15/M05 A3023 RMK A01 T01491046  RH  026%=      5-min Rain = 0
KPG1 131714Z 05012KT 15/M05 A3023 RMK A01 T01501047  RH  025%=      5-min Rain = 0
KPG1 131715Z 04010KT 15/M05 A3023 RMK A01 T01501045  RH  026%=      5-min Rain = 0
KPG1 131716Z 03011KT 15/M04 A3023 RMK A01 T01541043  RH  025%=      5-min Rain = 0
KPG1 131717Z 02012KT 15/M05 A3023 RMK A01 T01531045  RH  025%=      5-min Rain = 0
KPG1 131718Z 03010KT 15/M04 A3023 RMK A01 T01521044  RH  026%=      5-min Rain = 0
KPG1 131719Z 02012KT 15/M05 A3023 RMK A01 T01501045  RH  026%=      5-min Rain = 0
KPG1 131720Z 03015KT 15/M05 A3023 RMK A01 T01501045  RH  026%=      5-min Rain = 0
KPG1 131721Z 03013KT 15/M05 A3023 RMK A01 T01501045  RH  026%=      5-min Rain = 0
KPG1 131722Z 04009KT 15/M05 A3023 RMK A01 T01501045  RH  026%=      5-min Rain = 0
KPG1 131723Z 05010KT 15/M04 A3023 RMK A01 T01521043  RH  026%=      5-min Rain = 0
KPG1 131724Z 06011KT 15/M04 A3023 RMK A01 T01541043  RH  025%=      5-min Rain = 0
KPG1 131725Z 07012KT 16/M04 A3023 RMK A01 T01561043  RH  025%=      5-min Rain = 0
KPG1 131726Z 07011KT 16/M04 A3023 RMK A01 T01551044  RH  025%=      5-min Rain = 0
KPG1 131727Z 04009KT 15/M04 A3023 RMK A01 T01531044  RH  025%=      5-min Rain = 0
KPG1 131728Z 03010KT 16/M04 A3023 RMK A01 T01551042  RH  025%=      5-min Rain = 0
KPG1 131729Z 04011G16KT 15/M04 A3023 RMK A01 T01541044  RH  025%=      5-min Rain = 0
KPG1 131730Z 07013KT 15/M04 A3023 RMK A01 T01541043  RH  025%=      5-min Rain = 0
KPG1 131731Z 06013G19KT 16/M04 A3023 RMK A01 T01551043  RH  025%=      5-min Rain = 0
KPG1 131732Z 05011KT 15/M04 A3023 RMK A01 T01541044  RH  025%=      5-min Rain = 0
KPG1 131733Z 05009KT 16/M04 A3023 RMK A01 T01561042  RH  025%=      5-min Rain = 0
KPG1 131734Z 04009KT 15/M05 A3023 RMK A01 T01541045  RH  025%=      5-min Rain = 0
KPG1 131735Z 03013KT 15/M04 A3023 RMK A01 T01531043  RH  026%=      5-min Rain = 0
KPG1 131736Z 03014KT 15/M04 A3023 RMK A01 T01541043  RH  025%=      5-min Rain = 0
KPG1 131737Z 04008KT 15/M04 A3023 RMK A01 T01541044  RH  025%=      5-min Rain = 0
KPG1 131738Z 03008KT 15/M04 A3023 RMK A01 T01531044  RH  025%=      5-min Rain = 0
KPG1 131739Z 04008KT 15/M04 A3023 RMK A01 T01541044  RH  025%=      5-min Rain = 0
KPG1 131740Z 04010KT 16/M04 A3023 RMK A01 T01581041  RH  025%=      5-min Rain = 0
KPG1 131741Z 04011KT 16/M04 A3023 RMK A01 T01571043  RH  025%=      5-min Rain = 0
KPG1 131742Z 04012KT 16/M04 A3023 RMK A01 T01561043  RH  025%=      5-min Rain = 0
KPG1 131743Z 03010KT 16/M04 A3023 RMK A01 T01581042  RH  025%=      5-min Rain = 0
KPG1 131744Z 04010KT 16/M04 A3023 RMK A01 T01591041  RH  025%=      5-min Rain = 0
KPG1 131745Z 03007KT 16/M04 A3023 RMK A01 T01581042  RH  025%=      5-min Rain = 0
KPG1 131746Z 02008KT 16/M04 A3022 RMK A01 T01601039  RH  025%=      5-min Rain = 0
KPG1 131747Z 03011KT 16/M04 A3022 RMK A01 T01631040  RH  025%=      5-min Rain = 0
KPG1 131748Z 03012KT 16/M04 A3022 RMK A01 T01621042  RH  024%=      5-min Rain = 0
KPG1 131749Z 03012KT 16/M04 A3022 RMK A01 T01641039  RH  025%=      5-min Rain = 0
KPG1 131750Z 06012KT 17/M04 A3022 RMK A01 T01671039  RH  024%=      5-min Rain = 0
KPG1 131751Z 06012KT 17/M04 A3022 RMK A01 T01671041  RH  024%=      5-min Rain = 0
KPG1 131752Z 05011KT 17/M04 A3023 RMK A01 T01661041  RH  024%=      5-min Rain = 0
KPG1 131753Z 04008KT 17/M04 A3023 RMK A01 T01671040  RH  024%=      5-min Rain = 0
KPG1 131754Z 04006KT 17/M04 A3023 RMK A01 T01691039  RH  024%=      5-min Rain = 0
KPG1 131755Z 04009KT 17/M04 A3022 RMK A01 T01691040  RH  024%=      5-min Rain = 0
KPG1 131756Z 01012KT 17/M04 A3022 RMK A01 T01671041  RH  024%=      5-min Rain = 0
KPG1 131757Z 03009KT 16/M04 A3022 RMK A01 T01631043  RH  024%=      5-min Rain = 0
KPG1 131758Z 04008KT 16/M04 A3022 RMK A01 T01621041  RH  025%=      5-min Rain = 0
KPG1 131759Z 02008KT 16/M04 A3022 RMK A01 T01641039  RH  024%=      5-min Rain = 0
KPG1 131800Z 05009KT 17/M04 A3022 RMK A01 T01661040  RH  024%=      5-min Rain = 0
KPG1 131801Z 07012KT 17/M04 A3022 RMK A01 T01671040  RH  024%=      5-min Rain = 0
KPG1 131802Z 07011KT 17/M04 A3022 RMK A01 T01651043  RH  024%=      5-min Rain = 0
KPG1 131803Z 05012KT 17/M04 A3022 RMK A01 T01651041  RH  024%=      5-min Rain = 0
KPG1 131804Z 04010KT 16/M04 A3022 RMK A01 T01641044  RH  024%=      5-min Rain = 0
KPG1 131805Z 03011KT 16/M04 A3022 RMK A01 T01611043  RH  024%=      5-min Rain = 0
KPG1 131806Z 03011KT 16/M04 A3022 RMK A01 T01631042  RH  024%=      5-min Rain = 0
KPG1 131807Z 03010KT 17/M04 A3022 RMK A01 T01651041  RH  024%=      5-min Rain = 0
KPG1 131808Z 03013KT 17/M04 A3021 RMK A01 T01691040  RH  024%=      5-min Rain = 0
KPG1 131809Z 03011KT 17/M04 A3021 RMK A01 T01681043  RH  023%=      5-min Rain = 0
KPG1 131810Z 02012KT 17/M04 A3021 RMK A01 T01701040  RH  023%=      5-min Rain = 0
KPG1 131811Z 01011KT 17/M04 A3021 RMK A01 T01691042  RH  023%=      5-min Rain = 0
KPG1 131812Z 02010KT 17/M04 A3022 RMK A01 T01671043  RH  023%=      5-min Rain = 0
KPG1 131813Z 01008KT 17/M04 A3021 RMK A01 T01651044  RH  024%=      5-min Rain = 0
KPG1 131814Z 02009KT 16/M04 A3021 RMK A01 T01631044  RH  024%=      5-min Rain = 0
KPG1 131815Z 03012KT 16/M04 A3021 RMK A01 T01631043  RH  024%=      5-min Rain = 0
KPG1 131816Z 03009KT 16/M04 A3021 RMK A01 T01621043  RH  024%=      5-min Rain = 0
KPG1 131817Z 03008KT 16/M04 A3021 RMK A01 T01621042  RH  024%=      5-min Rain = 0
KPG1 131818Z 03012KT 17/M04 A3021 RMK A01 T01671039  RH  024%=      5-min Rain = 0
KPG1 131819Z 03014KT 17/M04 A3021 RMK A01 T01681041  RH  024%=      5-min Rain = 0
KPG1 131820Z 04011KT 17/M04 A3021 RMK A01 T01661043  RH  024%=      5-min Rain = 0
KPG1 131821Z 04009KT 17/M04 A3021 RMK A01 T01671041  RH  024%=      5-min Rain = 0
KPG1 131822Z 06012KT 17/M04 A3021 RMK A01 T01691042  RH  023%=      5-min Rain = 0
KPG1 131823Z 07010KT 17/M04 A3021 RMK A01 T01671044  RH  023%=      5-min Rain = 0
KPG1 131824Z 07008G13KT 17/M04 A3021 RMK A01 T01671044  RH  023%=      5-min Rain = 0
KPG1 131825Z 08009KT 17/M04 A3021 RMK A01 T01671044  RH  023%=      5-min Rain = 0
KPG1 131826Z 06008G13KT 17/M04 A3021 RMK A01 T01671043  RH  024%=      5-min Rain = 0
KPG1 131827Z 03011KT 17/M04 A3021 RMK A01 T01721040  RH  023%=      5-min Rain = 0
KPG1 131828Z 03008KT 17/M04 A3021 RMK A01 T01721043  RH  023%=      5-min Rain = 0
KPG1 131829Z 04009KT 17/M04 A3021 RMK A01 T01701043  RH  023%=      5-min Rain = 0
KPG1 131830Z 06010KT 17/M04 A3021 RMK A01 T01721042  RH  023%=      5-min Rain = 0
KPG1 131831Z 04011G17KT 17/M04 A3021 RMK A01 T01731041  RH  023%=      5-min Rain = 0
KPG1 131832Z 03013KT 18/M04 A302 RMK A01 T01751041  RH  023%=      5-min Rain = 0
KPG1 131833Z 03012KT 17/M04 A302 RMK A01 T01731044  RH  022%=      5-min Rain = 0
KPG1 131834Z 04011KT 17/M05 A302 RMK A01 T01691045  RH  023%=      5-min Rain = 0
KPG1 131835Z 03014KT 17/M04 A302 RMK A01 T01691043  RH  023%=      5-min Rain = 0
KPG1 131836Z 03012KT 17/M04 A302 RMK A01 T01711043  RH  023%=      5-min Rain = 0
KPG1 131837Z 03011KT 17/M04 A302 RMK A01 T01701044  RH  023%=      5-min Rain = 0
KPG1 131838Z 04010KT 17/M04 A302 RMK A01 T01701044  RH  023%=      5-min Rain = 0
KPG1 131839Z 05011KT 17/M04 A302 RMK A01 T01711043  RH  023%=      5-min Rain = 0
KPG1 131840Z 07010KT 17/M04 A302 RMK A01 T01741044  RH  022%=      5-min Rain = 0
KPG1 131841Z 06011G16KT 17/M05 A302 RMK A01 T01741046  RH  022%=      5-min Rain = 0
KPG1 131842Z 07013KT 17/M05 A302 RMK A01 T01731046  RH  022%=      5-min Rain = 0
KPG1 131843Z 08010KT 17/M05 A302 RMK A01 T01721046  RH  022%=      5-min Rain = 0
KPG1 131844Z 08009KT 18/M05 A302 RMK A01 T01751045  RH  022%=      5-min Rain = 0
KPG1 131845Z 08008KT 18/M05 A302 RMK A01 T01781045  RH  022%=      5-min Rain = 0
KPG1 131846Z 09010KT 18/M05 A302 RMK A01 T01791045  RH  021%=      5-min Rain = 0
KPG1 131847Z 06008G13KT 18/M04 A302 RMK A01 T01801044  RH  021%=      5-min Rain = 0
KPG1 131848Z 07013KT 18/M04 A302 RMK A01 T01831041  RH  021%=      5-min Rain = 0
KPG1 131849Z 05012KT 18/M04 A302 RMK A01 T01811043  RH  021%=      5-min Rain = 0
KPG1 131850Z 04012KT 18/M04 A302 RMK A01 T01791041  RH  022%=      5-min Rain = 0
KPG1 131851Z 05010KT 18/M04 A302 RMK A01 T01791041  RH  022%=      5-min Rain = 0
KPG1 131852Z 06010KT 18/M04 A302 RMK A01 T01791041  RH  022%=      5-min Rain = 0
KPG1 131853Z 09011KT 18/M04 A3019 RMK A01 T01801042  RH  022%=      5-min Rain = 0
KPG1 131854Z 09010KT 18/M04 A3019 RMK A01 T01821042  RH  022%=      5-min Rain = 0
KPG1 131855Z 10012KT 18/M04 A3019 RMK A01 T01821043  RH  021%=      5-min Rain = 0
KPG1 131856Z 06011KT 18/M04 A3019 RMK A01 T01821042  RH  022%=      5-min Rain = 0
KPG1 131857Z 07009KT 18/M04 A3019 RMK A01 T01831044  RH  021%=      5-min Rain = 0
KPG1 131858Z 07011G17KT 18/M05 A3019 RMK A01 T01781045  RH  022%=      5-min Rain = 0
KPG1 131859Z 06014KT 18/M04 A3019 RMK A01 T01771044  RH  022%=      5-min Rain = 0
KPG1 131900Z 05011KT 18/M04 A3019 RMK A01 T01801043  RH  022%=      5-min Rain = 0
KPG1 131901Z 06011KT 18/M04 A3019 RMK A01 T01821042  RH  021%=      5-min Rain = 0
KPG1 131902Z 08008KT 18/M04 A3019 RMK A01 T01801043  RH  022%=      5-min Rain = 0
KPG1 131903Z 05010KT 18/M04 A3019 RMK A01 T01791042  RH  022%=      5-min Rain = 0
KPG1 131904Z 04010KT 18/M04 A3019 RMK A01 T01811041  RH  022%=      5-min Rain = 0
KPG1 131905Z 03012KT 18/M04 A3019 RMK A01 T01831039  RH  022%=      5-min Rain = 0
KPG1 131906Z 04011KT 18/M04 A3019 RMK A01 T01841042  RH  021%=      5-min Rain = 0
KPG1 131907Z 04015KT 18/M04 A3019 RMK A01 T01811043  RH  021%=      5-min Rain = 0
KPG1 131908Z 04013KT 18/M04 A3018 RMK A01 T01801042  RH  022%=      5-min Rain = 0
KPG1 131909Z 03012KT 18/M04 A3018 RMK A01 T01831040  RH  022%=      5-min Rain = 0
KPG1 131910Z 04012KT 18/M04 A3018 RMK A01 T01841042  RH  021%=      5-min Rain = 0
KPG1 131911Z 05012KT 18/M04 A3018 RMK A01 T01801043  RH  021%=      5-min Rain = 0
KPG1 131912Z 03012KT 18/M04 A3018 RMK A01 T01801041  RH  022%=      5-min Rain = 0
KPG1 131913Z 03014KT 18/M04 A3018 RMK A01 T01811041  RH  022%=      5-min Rain = 0
KPG1 131914Z 03012G17KT 18/M04 A3018 RMK A01 T01801042  RH  022%=      5-min Rain = 0
KPG1 131915Z 02012KT 18/M04 A3018 RMK A01 T01821041  RH  022%=      5-min Rain = 0
KPG1 131916Z 03013G19KT 18/M04 A3018 RMK A01 T01841041  RH  021%=      5-min Rain = 0
KPG1 131917Z 02016KT 18/M04 A3018 RMK A01 T01821043  RH  021%=      5-min Rain = 0
KPG1 131918Z 03015KT 18/M04 A3018 RMK A01 T01821043  RH  021%=      5-min Rain = 0
KPG1 131919Z 03016KT 18/M04 A3018 RMK A01 T01821042  RH  021%=      5-min Rain = 0
KPG1 131920Z 06013KT 18/M04 A3018 RMK A01 T01841042  RH  021%=      5-min Rain = 0
KPG1 131921Z 09012G17KT 19/M04 A3018 RMK A01 T01861041  RH  021%=      5-min Rain = 0
KPG1 131922Z 08013KT 19/M04 A3018 RMK A01 T01861043  RH  021%=      5-min Rain = 0
KPG1 131923Z 07012KT 18/M04 A3018 RMK A01 T01831044  RH  021%=      5-min Rain = 0
KPG1 131924Z 04013KT 18/M04 A3018 RMK A01 T01801044  RH  021%=      5-min Rain = 0
KPG1 131925Z 01008KT 18/M05 A3018 RMK A01 T01761045  RH  022%=      5-min Rain = 0
KPG1 131926Z 04009KT 18/M04 A3018 RMK A01 T01761042  RH  022%=      5-min Rain = 0
KPG1 131927Z 05011G17KT 18/M04 A3017 RMK A01 T01791041  RH  022%=      5-min Rain = 0
KPG1 131928Z 07013KT 18/M04 A3017 RMK A01 T01821041  RH  022%=      5-min Rain = 0
KPG1 131929Z 06011G16KT 18/M04 A3017 RMK A01 T01841041  RH  021%=      5-min Rain = 0
KPG1 131930Z 06012KT 19/M04 A3017 RMK A01 T01851041  RH  021%=      5-min Rain = 0
KPG1 131931Z 06008KT 18/M04 A3017 RMK A01 T01831044  RH  021%=      5-min Rain = 0
KPG1 131932Z 04013KT 18/M04 A3017 RMK A01 T01821042  RH  021%=      5-min Rain = 0
KPG1 131933Z 01011KT 18/M04 A3017 RMK A01 T01821042  RH  021%=      5-min Rain = 0
KPG1 131934Z 02011KT 18/M04 A3017 RMK A01 T01811042  RH  022%=      5-min Rain = 0
KPG1 131935Z 02014G20KT 18/M04 A3017 RMK A01 T01801042  RH  022%=      5-min Rain = 0
KPG1 131936Z 04012G20KT 18/M04 A3017 RMK A01 T01811041  RH  022%=      5-min Rain = 0
KPG1 131937Z 05011KT 18/M04 A3017 RMK A01 T01831041  RH  022%=      5-min Rain = 0
KPG1 131938Z 04011KT 19/M04 A3017 RMK A01 T01871039  RH  021%=      5-min Rain = 0
KPG1 131939Z 04010KT 19/M04 A3017 RMK A01 T01911039  RH  021%=      5-min Rain = 0
KPG1 131940Z 03012KT 19/M04 A3017 RMK A01 T01921040  RH  020%=      5-min Rain = 0
KPG1 131941Z 03010KT 19/M04 A3017 RMK A01 T01891042  RH  021%=      5-min Rain = 0
KPG1 131942Z 04013KT 19/M04 A3017 RMK A01 T01871043  RH  021%=      5-min Rain = 0
KPG1 131943Z 02008KT 18/M04 A3017 RMK A01 T01831043  RH  021%=      5-min Rain = 0
KPG1 131944Z 04004KT 19/M04 A3017 RMK A01 T01851039  RH  021%=      5-min Rain = 0
KPG1 131945Z 04011G16KT 19/M04 A3017 RMK A01 T01901039  RH  021%=      5-min Rain = 0
KPG1 131946Z 04010G16KT 19/M04 A3017 RMK A01 T01911041  RH  020%=      5-min Rain = 0
KPG1 131947Z 05011KT 19/M04 A3016 RMK A01 T01901041  RH  021%=      5-min Rain = 0
KPG1 131948Z 03011G16KT 19/M04 A3016 RMK A01 T01891042  RH  020%=      5-min Rain = 0
KPG1 131949Z 02012KT 19/M04 A3016 RMK A01 T01881042  RH  021%=      5-min Rain = 0
KPG1 131950Z 02012KT 19/M04 A3016 RMK A01 T01881042  RH  021%=      5-min Rain = 0
KPG1 131951Z 05013G18KT 19/M04 A3016 RMK A01 T01871043  RH  021%=      5-min Rain = 0
KPG1 131952Z 07013KT 18/M04 A3016 RMK A01 T01841043  RH  021%=      5-min Rain = 0
KPG1 131953Z 06013KT 19/M04 A3016 RMK A01 T01861041  RH  021%=      5-min Rain = 0
KPG1 131954Z 07010KT 19/M04 A3016 RMK A01 T01881041  RH  021%=      5-min Rain = 0
KPG1 131955Z 07008KT 19/M04 A3016 RMK A01 T01871042  RH  021%=      5-min Rain = 0
KPG1 131956Z 07010G15KT 19/M04 A3016 RMK A01 T01901039  RH  021%=      5-min Rain = 0
KPG1 131957Z 06013KT 19/M04 A3016 RMK A01 T01941040  RH  020%=      5-min Rain = 0
KPG1 131958Z 06010KT 19/M04 A3016 RMK A01 T01941041  RH  020%=      5-min Rain = 0
KPG1 131959Z 08009KT 19/M04 A3016 RMK A01 T01931042  RH  020%=      5-min Rain = 0
KPG1 132000Z 06013KT 19/M04 A3016 RMK A01 T01901043  RH  020%=      5-min Rain = 0
KPG1 132001Z 07017KT 19/M04 A3015 RMK A01 T01871043  RH  021%=      5-min Rain = 0
KPG1 132002Z 05013KT 19/M04 A3015 RMK A01 T01881041  RH  021%=      5-min Rain = 0
KPG1 132003Z 05012KT 19/M04 A3015 RMK A01 T01911041  RH  020%=      5-min Rain = 0
KPG1 132004Z 03012KT 19/M04 A3015 RMK A01 T01901042  RH  020%=      5-min Rain = 0
KPG1 132005Z 03013KT 19/M04 A3015 RMK A01 T01881042  RH  021%=      5-min Rain = 0
KPG1 132006Z 03010G15KT 19/M04 A3015 RMK A01 T01891042  RH  021%=      5-min Rain = 0
KPG1 132007Z 02014KT 19/M04 A3015 RMK A01 T01881042  RH  021%=      5-min Rain = 0
KPG1 132008Z 04010KT 19/M04 A3015 RMK A01 T01881042  RH  021%=      5-min Rain = 0
KPG1 132009Z 04011KT 19/M04 A3015 RMK A01 T01881042  RH  021%=      5-min Rain = 0
KPG1 132010Z 04012KT 19/M04 A3015 RMK A01 T01891041  RH  021%=      5-min Rain = 0
KPG1 132011Z 02013KT 19/M04 A3015 RMK A01 T01911039  RH  021%=      5-min Rain = 0
KPG1 132012Z 03011KT 19/M04 A3015 RMK A01 T01941039  RH  020%=      5-min Rain = 0
KPG1 132013Z 02011KT 20/M04 A3015 RMK A01 T01971039  RH  020%=      5-min Rain = 0
KPG1 132014Z 02016G21KT 20/M04 A3015 RMK A01 T01961040  RH  020%=      5-min Rain = 0
KPG1 132015Z 04014KT 19/M04 A3015 RMK A01 T01931042  RH  020%=      5-min Rain = 0
KPG1 132016Z 06012KT 19/M04 A3015 RMK A01 T01931041  RH  020%=      5-min Rain = 0
KPG1 132017Z 06014KT 20/M04 A3015 RMK A01 T01961040  RH  020%=      5-min Rain = 0
KPG1 132018Z 06009KT 20/M04 A3015 RMK A01 T01971041  RH  020%=      5-min Rain = 0
KPG1 132019Z 05011KT 20/M04 A3015 RMK A01 T02001039  RH  020%=      5-min Rain = 0
KPG1 132020Z 07012KT 20/M04 A3015 RMK A01 T02011040  RH  019%=      5-min Rain = 0
KPG1 132021Z 07013KT 20/M04 A3015 RMK A01 T01991041  RH  019%=      5-min Rain = 0
KPG1 132022Z 07012KT 20/M04 A3015 RMK A01 T01981041  RH  020%=      5-min Rain = 0
KPG1 132023Z 05009KT 19/M04 A3015 RMK A01 T01941044  RH  020%=      5-min Rain = 0
KPG1 132024Z 04008KT 19/M04 A3015 RMK A01 T01891044  RH  020%=      5-min Rain = 0
KPG1 132025Z 03008G13KT 19/M04 A3015 RMK A01 T01891043  RH  020%=      5-min Rain = 0
KPG1 132026Z 02013KT 19/M04 A3014 RMK A01 T01901042  RH  020%=      5-min Rain = 0
KPG1 132027Z 03013KT 19/M04 A3014 RMK A01 T01921041  RH  020%=      5-min Rain = 0
KPG1 132028Z 03017KT 20/M04 A3015 RMK A01 T01961040  RH  020%=      5-min Rain = 0
KPG1 132029Z 03014KT 20/M04 A3014 RMK A01 T01961041  RH  020%=      5-min Rain = 0
KPG1 132030Z 02015KT 19/M04 A3014 RMK A01 T01941042  RH  020%=      5-min Rain = 0
KPG1 132031Z 03012G17KT 19/M04 A3014 RMK A01 T01931042  RH  020%=      5-min Rain = 0
KPG1 132032Z 04009KT 19/M04 A3014 RMK A01 T01911043  RH  020%=      5-min Rain = 0
KPG1 132033Z 05009KT 19/M04 A3014 RMK A01 T01931041  RH  020%=      5-min Rain = 0
KPG1 132034Z 06012KT 20/M04 A3014 RMK A01 T01971040  RH  020%=      5-min Rain = 0
KPG1 132035Z 05012KT 20/M04 A3014 RMK A01 T01961042  RH  020%=      5-min Rain = 0
KPG1 132036Z 05014G19KT 20/M04 A3014 RMK A01 T01961042  RH  020%=      5-min Rain = 0
KPG1 132037Z 04016KT 20/M04 A3014 RMK A01 T01951044  RH  020%=      5-min Rain = 0
KPG1 132038Z 05015KT 19/M04 A3014 RMK A01 T01931043  RH  020%=      5-min Rain = 0
KPG1 132039Z 06013KT 19/M04 A3014 RMK A01 T01941042  RH  020%=      5-min Rain = 0
KPG1 132040Z 06011KT 20/M04 A3014 RMK A01 T01961042  RH  020%=      5-min Rain = 0
KPG1 132041Z 06010G17KT 20/M04 A3014 RMK A01 T01951042  RH  020%=      5-min Rain = 0
KPG1 132042Z 07016KT 20/M04 A3014 RMK A01 T01951042  RH  020%=      5-min Rain = 0
KPG1 132043Z 06011G18KT 20/M04 A3014 RMK A01 T01961042  RH  020%=      5-min Rain = 0
KPG1 132044Z 08011KT 20/M04 A3014 RMK A01 T02001041  RH  019%=      5-min Rain = 0
KPG1 132045Z 04012KT 20/M04 A3014 RMK A01 T01991041  RH  019%=      5-min Rain = 0
KPG1 132046Z 03013G18KT 20/M04 A3014 RMK A01 T02001041  RH  019%=      5-min Rain = 0
KPG1 132047Z 03008KT 20/M04 A3014 RMK A01 T02001041  RH  019%=      5-min Rain = 0
KPG1 132048Z 02011G16KT 20/M04 A3014 RMK A01 T02001042  RH  019%=      5-min Rain = 0
KPG1 132049Z 01010KT 20/M04 A3014 RMK A01 T01981043  RH  019%=      5-min Rain = 0
KPG1 132050Z 02009KT 20/M04 A3014 RMK A01 T01991042  RH  019%=      5-min Rain = 0
KPG1 132051Z 03010KT 20/M04 A3014 RMK A01 T01991042  RH  019%=      5-min Rain = 0
KPG1 132052Z 07009KT 20/M04 A3014 RMK A01 T02001042  RH  019%=      5-min Rain = 0
KPG1 132053Z 08007KT 20/M04 A3014 RMK A01 T02011042  RH  019%=      5-min Rain = 0
KPG1 132054Z 07009G15KT 20/M04 A3014 RMK A01 T02021042  RH  019%=      5-min Rain = 0
KPG1 132055Z 06012KT 20/M04 A3014 RMK A01 T02031043  RH  019%=      5-min Rain = 0
KPG1 132056Z 06010KT 20/M04 A3014 RMK A01 T01991044  RH  019%=      5-min Rain = 0
KPG1 132057Z 07010KT 20/M04 A3014 RMK A01 T01981044  RH  019%=      5-min Rain = 0
KPG1 132058Z 08008KT 20/M04 A3014 RMK A01 T01971043  RH  019%=      5-min Rain = 0
KPG1 132059Z 05005KT 20/M04 A3014 RMK A01 T01981043  RH  019%=      5-min Rain = 0
KPG1 132100Z 03007KT 20/M04 A3014 RMK A01 T01991042  RH  019%=      5-min Rain = 0
KPG1 132101Z 07008KT 20/M04 A3014 RMK A01 T02001042  RH  019%=      5-min Rain = 0
KPG1 132102Z 03008KT 20/M04 A3013 RMK A01 T02001042  RH  019%=      5-min Rain = 0
KPG1 132103Z 05009G14KT 20/M04 A3013 RMK A01 T02011041  RH  019%=      5-min Rain = 0
KPG1 132104Z 07012KT 20/M04 A3013 RMK A01 T02031041  RH  019%=      5-min Rain = 0
KPG1 132105Z 06012KT 20/M04 A3013 RMK A01 T02031042  RH  019%=      5-min Rain = 0
KPG1 132106Z 06011KT 20/M04 A3013 RMK A01 T02011043  RH  019%=      5-min Rain = 0
KPG1 132107Z 05010G15KT 20/M04 A3013 RMK A01 T01981043  RH  019%=      5-min Rain = 0
KPG1 132108Z 04010G15KT 20/M04 A3013 RMK A01 T01961043  RH  019%=      5-min Rain = 0
KPG1 132109Z 08008KT 20/M04 A3013 RMK A01 T01951043  RH  020%=      5-min Rain = 0
KPG1 132110Z 09009KT 20/M04 A3013 RMK A01 T01951043  RH  020%=      5-min Rain = 0
KPG1 132111Z 08012G17KT 20/M04 A3013 RMK A01 T01951043  RH  020%=      5-min Rain = 0
KPG1 132112Z 10008KT 20/M04 A3013 RMK A01 T01961043  RH  020%=      5-min Rain = 0
KPG1 132113Z 05009KT 20/M04 A3013 RMK A01 T01971042  RH  020%=      5-min Rain = 0
KPG1 132114Z 06015G20KT 20/M04 A3012 RMK A01 T01981042  RH  019%=      5-min Rain = 0
KPG1 132115Z 07011KT 20/M04 A3012 RMK A01 T01991042  RH  019%=      5-min Rain = 0
KPG1 132116Z 06013G18KT 20/M04 A3012 RMK A01 T01991042  RH  019%=      5-min Rain = 0
KPG1 132117Z 08016KT 20/M04 A3012 RMK A01 T02011042  RH  019%=      5-min Rain = 0
KPG1 132118Z 09008KT 20/M04 A3013 RMK A01 T01991043  RH  019%=      5-min Rain = 0
KPG1 132119Z 05011KT 20/M04 A3013 RMK A01 T01981042  RH  019%=      5-min Rain = 0
KPG1 132120Z 06013KT 20/M04 A3013 RMK A01 T01991042  RH  019%=      5-min Rain = 0
KPG1 132121Z 07011KT 20/M04 A3013 RMK A01 T01971043  RH  019%=      5-min Rain = 0
KPG1 132122Z 05009KT 20/M04 A3013 RMK A01 T01971043  RH  019%=      5-min Rain = 0
KPG1 132123Z 05006KT 20/M04 A3013 RMK A01 T01951043  RH  020%=      5-min Rain = 0
KPG1 132124Z 06010KT 20/M04 A3012 RMK A01 T01951042  RH  020%=      5-min Rain = 0
KPG1 132125Z 05011KT 20/M04 A3012 RMK A01 T01971041  RH  020%=      5-min Rain = 0
KPG1 132126Z 06011KT 20/M04 A3012 RMK A01 T01981041  RH  020%=      5-min Rain = 0
KPG1 132127Z 08009KT 20/M04 A3012 RMK A01 T02011039  RH  019%=      5-min Rain = 0
KPG1 132128Z 08010KT 20/M04 A3012 RMK A01 T02041039  RH  019%=      5-min Rain = 0
KPG1 132129Z 05015KT 20/M04 A3012 RMK A01 T02031040  RH  019%=      5-min Rain = 0
KPG1 132130Z 06011KT 20/M04 A3013 RMK A01 T02021041  RH  019%=      5-min Rain = 0
KPG1 132131Z 07010KT 20/M04 A3013 RMK A01 T02001041  RH  019%=      5-min Rain = 0
KPG1 132132Z 06009G14KT 20/M04 A3013 RMK A01 T02011040  RH  019%=      5-min Rain = 0
KPG1 132133Z 07007KT 20/M04 A3013 RMK A01 T02001041  RH  019%=      5-min Rain = 0
KPG1 132134Z 06007KT 20/M04 A3013 RMK A01 T01991040  RH  020%=      5-min Rain = 0
KPG1 132135Z 04009KT 20/M04 A3013 RMK A01 T01991039  RH  020%=      5-min Rain = 0
KPG1 132136Z 07010KT 20/M04 A3013 RMK A01 T01991040  RH  020%=      5-min Rain = 0
KPG1 132137Z 06011KT 20/M04 A3012 RMK A01 T01971040  RH  020%=      5-min Rain = 0
KPG1 132138Z 05011KT 20/M04 A3012 RMK A01 T01961040  RH  020%=      5-min Rain = 0
KPG1 132139Z 06006KT 20/M04 A3012 RMK A01 T01951040  RH  020%=      5-min Rain = 0
KPG1 132140Z 07007G13KT 20/M04 A3012 RMK A01 T01961040  RH  020%=      5-min Rain = 0
KPG1 132141Z 07011G16KT 20/M04 A3012 RMK A01 T01981039  RH  020%=      5-min Rain = 0
KPG1 132142Z 08012KT 20/M04 A3012 RMK A01 T02001039  RH  020%=      5-min Rain = 0
KPG1 132143Z 07011KT 20/M04 A3012 RMK A01 T02001040  RH  019%=      5-min Rain = 0
KPG1 132144Z 08008KT 20/M04 A3012 RMK A01 T02001039  RH  020%=      5-min Rain = 0
KPG1 132145Z 07009KT 20/M04 A3012 RMK A01 T02001040  RH  020%=      5-min Rain = 0
KPG1 132146Z 07011KT 20/M04 A3012 RMK A01 T02011039  RH  019%=      5-min Rain = 0
KPG1 132147Z 06009KT 20/M04 A3012 RMK A01 T02011039  RH  019%=      5-min Rain = 0
KPG1 132148Z 07009KT 20/M04 A3012 RMK A01 T02001040  RH  020%=      5-min Rain = 0
KPG1 132149Z 05008KT 20/M04 A3012 RMK A01 T02001038  RH  020%=      5-min Rain = 0
KPG1 132150Z 05007KT 21/M04 A3012 RMK A01 T02051036  RH  019%=      5-min Rain = 0
KPG1 132151Z 07009KT 21/M04 A3012 RMK A01 T02081036  RH  019%=      5-min Rain = 0
KPG1 132152Z 06009KT 21/M04 A3012 RMK A01 T02091036  RH  019%=      5-min Rain = 0
KPG1 132153Z 04011KT 21/M04 A3012 RMK A01 T02081036  RH  019%=      5-min Rain = 0
KPG1 132154Z 03011KT 21/M04 A3012 RMK A01 T02051038  RH  019%=      5-min Rain = 0
KPG1 132155Z 04010KT 20/M04 A3012 RMK A01 T02041037  RH  019%=      5-min Rain = 0
KPG1 132156Z 03012KT 21/M04 A3012 RMK A01 T02051036  RH  020%=      5-min Rain = 0
KPG1 132157Z 04009KT 20/M04 A3012 RMK A01 T02031037  RH  020%=      5-min Rain = 0
KPG1 132158Z 02008KT 20/M04 A3012 RMK A01 T02021036  RH  020%=      5-min Rain = 0
KPG1 132159Z 03012KT 20/M04 A3012 RMK A01 T02041035  RH  020%=      5-min Rain = 0
KPG1 132200Z 03010KT 20/M04 A3012 RMK A01 T02041035  RH  020%=      5-min Rain = 0
KPG1 132201Z 03011KT 20/M04 A3012 RMK A01 T02031035  RH  020%=      5-min Rain = 0
KPG1 132202Z 03012KT 20/M03 A3012 RMK A01 T02041034  RH  020%=      5-min Rain = 0
KPG1 132203Z 04011KT 20/M03 A3012 RMK A01 T02041034  RH  020%=      5-min Rain = 0
KPG1 132204Z 03007KT 20/M03 A3012 RMK A01 T02031033  RH  020%=      5-min Rain = 0
KPG1 132205Z 02010KT 20/M03 A3011 RMK A01 T02031033  RH  020%=      5-min Rain = 0
KPG1 132206Z 05009KT 20/M03 A3011 RMK A01 T02041032  RH  020%=      5-min Rain = 0
KPG1 132207Z 04007KT 21/M03 A3011 RMK A01 T02051032  RH  020%=      5-min Rain = 0
KPG1 132208Z 02010KT 21/M03 A3011 RMK A01 T02081031  RH  020%=      5-min Rain = 0
KPG1 132209Z 04015KT 21/M03 A3011 RMK A01 T02091032  RH  020%=      5-min Rain = 0
KPG1 132210Z 03014KT 21/M03 A3011 RMK A01 T02071033  RH  020%=      5-min Rain = 0
KPG1 132211Z 03016KT 21/M03 A3011 RMK A01 T02081031  RH  020%=      5-min Rain = 0
KPG1 132212Z 02015KT 21/M03 A3011 RMK A01 T02071032  RH  020%=      5-min Rain = 0
KPG1 132213Z 03014KT 20/M03 A3011 RMK A01 T02041033  RH  020%=      5-min Rain = 0
KPG1 132214Z 03012KT 20/M03 A3011 RMK A01 T02041032  RH  020%=      5-min Rain = 0
KPG1 132215Z 03011KT 20/M03 A3011 RMK A01 T02041032  RH  020%=      5-min Rain = 0
KPG1 132216Z 04014G19KT 21/M03 A301 RMK A01 T02051031  RH  020%=      5-min Rain = 0
KPG1 132217Z 03013KT 21/M03 A301 RMK A01 T02051032  RH  020%=      5-min Rain = 0
KPG1 132218Z 03014KT 20/M03 A301 RMK A01 T02031032  RH  020%=      5-min Rain = 0
KPG1 132219Z 02007KT 20/M03 A301 RMK A01 T02011032  RH  021%=      5-min Rain = 0
KPG1 132220Z 02012KT 20/M03 A301 RMK A01 T02001032  RH  021%=      5-min Rain = 0
KPG1 132221Z 03013KT 20/M03 A301 RMK A01 T02001031  RH  021%=      5-min Rain = 0
KPG1 132222Z 06014KT 20/M03 A301 RMK A01 T02031029  RH  021%=      5-min Rain = 0
KPG1 132223Z 07016KT 20/M03 A301 RMK A01 T02041030  RH  020%=      5-min Rain = 0
KPG1 132224Z 08013KT 20/M03 A3011 RMK A01 T02041030  RH  020%=      5-min Rain = 0
KPG1 132225Z 06011KT 20/M03 A3011 RMK A01 T02031031  RH  021%=      5-min Rain = 0
KPG1 132226Z 07012KT 20/M03 A3011 RMK A01 T02011030  RH  021%=      5-min Rain = 0
KPG1 132227Z 07012G17KT 20/M03 A301 RMK A01 T02001030  RH  021%=      5-min Rain = 0
KPG1 132228Z 03011KT 20/M03 A301 RMK A01 T02001030  RH  021%=      5-min Rain = 0
KPG1 132229Z 03012KT 20/M03 A301 RMK A01 T02001029  RH  021%=      5-min Rain = 0
KPG1 132230Z 07010KT 20/M03 A3011 RMK A01 T02021029  RH  021%=      5-min Rain = 0
KPG1 132231Z 05011G16KT 20/M03 A301 RMK A01 T02021030  RH  021%=      5-min Rain = 0
KPG1 132232Z 04011KT 20/M03 A301 RMK A01 T02011029  RH  021%=      5-min Rain = 0
KPG1 132233Z 04012G18KT 20/M03 A301 RMK A01 T02021029  RH  021%=      5-min Rain = 0
KPG1 132234Z 07015KT 20/M03 A301 RMK A01 T02031029  RH  021%=      5-min Rain = 0
KPG1 132235Z 04013G18KT 20/M03 A301 RMK A01 T02021029  RH  021%=      5-min Rain = 0
KPG1 132236Z 07011KT 20/M03 A301 RMK A01 T02041028  RH  021%=      5-min Rain = 0
KPG1 132237Z 02010KT 21/M03 A301 RMK A01 T02051029  RH  021%=      5-min Rain = 0
KPG1 132238Z 04012KT 21/M03 A301 RMK A01 T02051029  RH  020%=      5-min Rain = 0
KPG1 132239Z 04010KT 21/M03 A301 RMK A01 T02061028  RH  020%=      5-min Rain = 0
KPG1 132240Z 05010KT 21/M03 A301 RMK A01 T02071029  RH  020%=      5-min Rain = 0
KPG1 132241Z 06009KT 21/M03 A3011 RMK A01 T02061029  RH  020%=      5-min Rain = 0
KPG1 132242Z 04011KT 21/M03 A301 RMK A01 T02051029  RH  021%=      5-min Rain = 0
KPG1 132243Z 04012G17KT 21/M03 A3011 RMK A01 T02071028  RH  020%=      5-min Rain = 0
KPG1 132244Z 04011KT 21/M03 A3011 RMK A01 T02061029  RH  020%=      5-min Rain = 0
KPG1 132245Z 03013KT 21/M03 A3011 RMK A01 T02051029  RH  020%=      5-min Rain = 0
KPG1 132246Z 04011KT 20/M03 A3011 RMK A01 T02031030  RH  021%=      5-min Rain = 0
KPG1 132247Z 05010KT 20/M03 A3011 RMK A01 T02011030  RH  021%=      5-min Rain = 0
KPG1 132248Z 04008KT 20/M03 A3011 RMK A01 T02021028  RH  021%=      5-min Rain = 0
KPG1 132249Z 04012KT 21/M03 A3011 RMK A01 T02061027  RH  021%=      5-min Rain = 0
KPG1 132250Z 04011KT 21/M03 A3011 RMK A01 T02071028  RH  020%=      5-min Rain = 0
KPG1 132251Z 03010KT 21/M03 A3011 RMK A01 T02061029  RH  020%=      5-min Rain = 0
KPG1 132252Z 02010KT 21/M03 A3011 RMK A01 T02051029  RH  020%=      5-min Rain = 0
KPG1 132253Z 03010KT 21/M03 A3011 RMK A01 T02051029  RH  021%=      5-min Rain = 0
KPG1 132254Z 04012G19KT 20/M03 A3011 RMK A01 T02041029  RH  021%=      5-min Rain = 0
KPG1 132255Z 03011KT 20/M03 A3011 RMK A01 T02001030  RH  021%=      5-min Rain = 0
KPG1 132256Z 04009KT 20/M03 A3011 RMK A01 T01991030  RH  021%=      5-min Rain = 0
KPG1 132257Z 03013KT 20/M03 A3011 RMK A01 T01991029  RH  021%=      5-min Rain = 0
KPG1 132258Z 03012KT 20/M03 A3011 RMK A01 T01991030  RH  021%=      5-min Rain = 0
KPG1 132259Z 03015KT 20/M03 A3011 RMK A01 T02001029  RH  021%=      5-min Rain = 0
KPG1 132300Z 04014KT 20/M03 A3011 RMK A01 T01991030  RH  021%=      5-min Rain = 0
KPG1 132301Z 05012G17KT 20/M03 A3011 RMK A01 T01991029  RH  021%=      5-min Rain = 0
KPG1 132302Z 06013KT 20/M03 A3011 RMK A01 T01991029  RH  021%=      5-min Rain = 0
KPG1 132303Z 05012KT 20/M03 A3011 RMK A01 T01971030  RH  021%=      5-min Rain = 0
KPG1 132304Z 06011KT 20/M03 A3011 RMK A01 T01961029  RH  022%=      5-min Rain = 0
KPG1 132305Z 07009KT 20/M03 A3011 RMK A01 T01961029  RH  022%=      5-min Rain = 0
KPG1 132306Z 07013KT 20/M03 A3011 RMK A01 T01971028  RH  022%=      5-min Rain = 0
KPG1 132307Z 06013KT 20/M03 A3011 RMK A01 T01981028  RH  022%=      5-min Rain = 0
KPG1 132308Z 06012G17KT 20/M03 A3011 RMK A01 T01981028  RH  022%=      5-min Rain = 0
KPG1 132309Z 06013KT 20/M03 A3011 RMK A01 T01971029  RH  022%=      5-min Rain = 0
KPG1 132310Z 06013KT 20/M03 A3011 RMK A01 T01961029  RH  022%=      5-min Rain = 0
KPG1 132311Z 06011KT 20/M03 A3011 RMK A01 T01961029  RH  022%=      5-min Rain = 0
KPG1 132312Z 05011KT 20/M03 A3011 RMK A01 T01961028  RH  022%=      5-min Rain = 0
KPG1 132313Z 06009KT 20/M03 A3011 RMK A01 T01961028  RH  022%=      5-min Rain = 0
KPG1 132314Z 04010KT 20/M03 A3011 RMK A01 T01961029  RH  022%=      5-min Rain = 0
KPG1 132315Z 06011KT 20/M03 A3011 RMK A01 T01961029  RH  022%=      5-min Rain = 0
KPG1 132316Z 06013KT 20/M03 A3011 RMK A01 T01961028  RH  022%=      5-min Rain = 0
KPG1 132317Z 07013KT 20/M03 A3011 RMK A01 T01961029  RH  022%=      5-min Rain = 0
KPG1 132318Z 07015KT 20/M03 A3011 RMK A01 T01961029  RH  022%=      5-min Rain = 0
KPG1 132319Z 06013KT 20/M03 A3011 RMK A01 T01951029  RH  022%=      5-min Rain = 0
KPG1 132320Z 06011KT 20/M03 A3011 RMK A01 T01951029  RH  022%=      5-min Rain = 0
KPG1 132321Z 06010KT 20/M03 A3011 RMK A01 T01951029  RH  022%=      5-min Rain = 0
KPG1 132322Z 08011KT 20/M03 A3011 RMK A01 T01951029  RH  022%=      5-min Rain = 0
KPG1 132323Z 04012KT 20/M03 A3011 RMK A01 T01961029  RH  022%=      5-min Rain = 0
KPG1 132324Z 03012KT 20/M03 A3011 RMK A01 T01971029  RH  022%=      5-min Rain = 0
KPG1 132325Z 03012KT 20/M03 A3011 RMK A01 T01971029  RH  021%=      5-min Rain = 0
KPG1 132326Z 03014KT 20/M03 A3011 RMK A01 T01971029  RH  021%=      5-min Rain = 0
KPG1 132327Z 03013G19KT 20/M03 A3011 RMK A01 T01961030  RH  022%=      5-min Rain = 0
KPG1 132328Z 04013KT 20/M03 A3011 RMK A01 T01951030  RH  022%=      5-min Rain = 0
KPG1 132329Z 03013KT 19/M03 A3011 RMK A01 T01941031  RH  022%=      5-min Rain = 0
KPG1 132330Z 03015KT 19/M03 A3011 RMK A01 T01941030  RH  022%=      5-min Rain = 0
KPG1 132331Z 03013KT 19/M03 A3011 RMK A01 T01941030  RH  022%=      5-min Rain = 0
KPG1 132332Z 04014KT 19/M03 A3011 RMK A01 T01941030  RH  022%=      5-min Rain = 0
KPG1 132333Z 04010KT 19/M03 A3011 RMK A01 T01941030  RH  022%=      5-min Rain = 0
KPG1 132334Z 04012KT 19/M03 A3011 RMK A01 T01941030  RH  022%=      5-min Rain = 0
KPG1 132335Z 03015KT 19/M03 A3011 RMK A01 T01941030  RH  022%=      5-min Rain = 0
KPG1 132336Z 04013KT 19/M03 A3011 RMK A01 T01941030  RH  022%=      5-min Rain = 0
KPG1 132337Z 04012KT 19/M03 A3011 RMK A01 T01941030  RH  022%=      5-min Rain = 0
KPG1 132338Z 04012KT 19/M03 A3011 RMK A01 T01931030  RH  022%=      5-min Rain = 0
KPG1 132339Z 04011KT 19/M03 A3011 RMK A01 T01931030  RH  022%=      5-min Rain = 0
KPG1 132340Z 03015KT 19/M03 A3011 RMK A01 T01931029  RH  022%=      5-min Rain = 0
KPG1 132341Z 04014KT 19/M03 A3011 RMK A01 T01931030  RH  022%=      5-min Rain = 0
KPG1 132342Z 04015G22KT 19/M03 A3011 RMK A01 T01931030  RH  022%=      5-min Rain = 0
KPG1 132343Z 04013G21KT 19/M03 A3011 RMK A01 T01911031  RH  022%=      5-min Rain = 0
KPG1 132344Z 03015KT 19/M03 A3011 RMK A01 T01911030  RH  022%=      5-min Rain = 0
KPG1 132345Z 03014G20KT 19/M03 A3011 RMK A01 T01911030  RH  022%=      5-min Rain = 0
KPG1 132346Z 04012KT 19/M03 A3012 RMK A01 T01911030  RH  022%=      5-min Rain = 0
KPG1 132347Z 05012KT 19/M03 A3012 RMK A01 T01921029  RH  022%=      5-min Rain = 0
KPG1 132348Z 06014KT 19/M03 A3012 RMK A01 T01921029  RH  022%=      5-min Rain = 0
KPG1 132349Z 05011KT 19/M03 A3012 RMK A01 T01921029  RH  022%=      5-min Rain = 0
KPG1 132350Z 04013KT 19/M03 A3012 RMK A01 T01931029  RH  022%=      5-min Rain = 0
KPG1 132351Z 04015KT 19/M03 A3012 RMK A01 T01911030  RH  022%=      5-min Rain = 0
KPG1 132352Z 04014KT 19/M03 A3012 RMK A01 T01901030  RH  022%=      5-min Rain = 0
KPG1 132353Z 04018G25KT 19/M03 A3012 RMK A01 T01901030  RH  022%=      5-min Rain = 0
KPG1 132354Z 03014KT 19/M03 A3012 RMK A01 T01891029  RH  023%=      5-min Rain = 0
KPG1 132355Z 04015G20KT 19/M03 A3012 RMK A01 T01891030  RH  023%=      5-min Rain = 0
KPG1 132356Z 03014KT 19/M03 A3012 RMK A01 T01891029  RH  023%=      5-min Rain = 0
KPG1 132357Z 03013KT 19/M03 A3012 RMK A01 T01891029  RH  023%=      5-min Rain = 0
KPG1 132358Z 03018G23KT 19/M03 A3012 RMK A01 T01891029  RH  023%=      5-min Rain = 0
KPG1 132359Z 03018KT 19/M03 A3012 RMK A01 T01891029  RH  023%=      5-min Rain = 0
KPG1 140000Z 02018KT 19/M03 A3012 RMK A01 T01881029  RH  023%=      5-min Rain = 0
KPG1 140001Z 03018KT 19/M03 A3012 RMK A01 T01881029  RH  023%=      5-min Rain = 0
KPG1 140002Z 03015KT 19/M03 A3012 RMK A01 T01881029  RH  023%=      5-min Rain = 0
KPG1 140003Z 04016KT 19/M03 A3012 RMK A01 T01881029  RH  023%=      5-min Rain = 0
KPG1 140004Z 04013KT 19/M03 A3012 RMK A01 T01881029  RH  023%=      5-min Rain = 0
KPG1 140005Z 03015KT 19/M03 A3012 RMK A01 T01881028  RH  023%=      5-min Rain = 0
KPG1 140006Z 03015KT 19/M03 A3012 RMK A01 T01871029  RH  023%=      5-min Rain = 0
KPG1 140007Z 02019G27KT 19/M03 A3012 RMK A01 T01861028  RH  023%=      5-min Rain = 0
KPG1 140008Z 03019G24KT 19/M03 A3012 RMK A01 T01851028  RH  023%=      5-min Rain = 0
KPG1 140009Z 02020KT 18/M03 A3012 RMK A01 T01841028  RH  023%=      5-min Rain = 0
KPG1 140010Z 03017G22KT 18/M03 A3012 RMK A01 T01841028  RH  024%=      5-min Rain = 0
KPG1 140011Z 03018G23KT 18/M03 A3012 RMK A01 T01841028  RH  024%=      5-min Rain = 0
KPG1 140012Z 03017G24KT 18/M03 A3012 RMK A01 T01841027  RH  024%=      5-min Rain = 0
KPG1 140013Z 03019G24KT 18/M03 A3012 RMK A01 T01841027  RH  024%=      5-min Rain = 0
KPG1 140014Z 02018G24KT 18/M03 A3012 RMK A01 T01841027  RH  024%=      5-min Rain = 0
KPG1 140015Z 03017G22KT 18/M03 A3012 RMK A01 T01841027  RH  024%=      5-min Rain = 0
KPG1 140016Z 03019KT 18/M03 A3012 RMK A01 T01831027  RH  024%=      5-min Rain = 0
KPG1 140017Z 03018G23KT 18/M03 A3012 RMK A01 T01821027  RH  024%=      5-min Rain = 0
KPG1 140018Z 04017G22KT 18/M03 A3012 RMK A01 T01821026  RH  024%=      5-min Rain = 0
KPG1 140019Z 04019KT 18/M03 A3012 RMK A01 T01811026  RH  024%=      5-min Rain = 0
KPG1 140020Z 03018KT 18/M03 A3012 RMK A01 T01801026  RH  024%=      5-min Rain = 0
KPG1 140021Z 02022KT 18/M03 A3012 RMK A01 T01811025  RH  025%=      5-min Rain = 0
KPG1 140022Z 03019G25KT 18/M03 A3012 RMK A01 T01801025  RH  025%=      5-min Rain = 0
KPG1 140023Z 03021KT 18/M03 A3013 RMK A01 T01801025  RH  025%=      5-min Rain = 0
KPG1 140024Z 03019G24KT 18/M03 A3013 RMK A01 T01801025  RH  025%=      5-min Rain = 0
KPG1 140025Z 03019KT 18/M03 A3013 RMK A01 T01801025  RH  025%=      5-min Rain = 0
KPG1 140026Z 03022G27KT 18/M03 A3013 RMK A01 T01791025  RH  025%=      5-min Rain = 0
KPG1 140027Z 03021G26KT 18/M02 A3013 RMK A01 T01781024  RH  025%=      5-min Rain = 0
KPG1 140028Z 03020G26KT 18/M02 A3013 RMK A01 T01781024  RH  025%=      5-min Rain = 0
KPG1 140029Z 04020G27KT 18/M02 A3013 RMK A01 T01781024  RH  025%=      5-min Rain = 0
KPG1 140030Z 03021G27KT 18/M02 A3013 RMK A01 T01781024  RH  025%=      5-min Rain = 0
KPG1 140031Z 03020KT 18/M02 A3013 RMK A01 T01781024  RH  025%=      5-min Rain = 0
KPG1 140032Z 03022KT 18/M02 A3013 RMK A01 T01781023  RH  025%=      5-min Rain = 0
KPG1 140033Z 03020G26KT 18/M02 A3012 RMK A01 T01781023  RH  025%=      5-min Rain = 0
KPG1 140034Z 03017KT 18/M02 A3013 RMK A01 T01771023  RH  025%=      5-min Rain = 0
KPG1 140035Z 03018G23KT 18/M02 A3012 RMK A01 T01771023  RH  025%=      5-min Rain = 0
KPG1 140036Z 04016G22KT 18/M02 A3013 RMK A01 T01771022  RH  026%=      5-min Rain = 0
KPG1 140037Z 03020KT 18/M02 A3012 RMK A01 T01771022  RH  026%=      5-min Rain = 0
KPG1 140038Z 03017KT 18/M02 A3013 RMK A01 T01771022  RH  026%=      5-min Rain = 0
KPG1 140039Z 03016KT 18/M02 A3013 RMK A01 T01771023  RH  026%=      5-min Rain = 0
KPG1 140040Z 03019G24KT 18/M02 A3013 RMK A01 T01771022  RH  026%=      5-min Rain = 0
KPG1 140041Z 04015G20KT 18/M02 A3013 RMK A01 T01771022  RH  026%=      5-min Rain = 0
KPG1 140042Z 04017KT 18/M02 A3013 RMK A01 T01761023  RH  026%=      5-min Rain = 0
KPG1 140043Z 03016G22KT 18/M02 A3013 RMK A01 T01771022  RH  026%=      5-min Rain = 0
KPG1 140044Z 03016KT 18/M02 A3013 RMK A01 T01761022  RH  026%=      5-min Rain = 0
KPG1 140045Z 03017KT 18/M02 A3013 RMK A01 T01761022  RH  026%=      5-min Rain = 0
KPG1 140046Z 04017G23KT 18/M02 A3013 RMK A01 T01761022  RH  026%=      5-min Rain = 0
KPG1 140047Z 03017KT 18/M02 A3013 RMK A01 T01761022  RH  026%=      5-min Rain = 0
KPG1 140048Z 03020G26KT 18/M02 A3013 RMK A01 T01751023  RH  026%=      5-min Rain = 0
KPG1 140049Z 03022KT 18/M02 A3013 RMK A01 T01751023  RH  026%=      5-min Rain = 0
KPG1 140050Z 03019G25KT 18/M02 A3014 RMK A01 T01751023  RH  026%=      5-min Rain = 0
KPG1 140051Z 04018KT 17/M02 A3014 RMK A01 T01741024  RH  026%=      5-min Rain = 0
KPG1 140052Z 03019KT 17/M02 A3014 RMK A01 T01741024  RH  026%=      5-min Rain = 0
KPG1 140053Z 03019G24KT 17/M03 A3014 RMK A01 T01731025  RH  026%=      5-min Rain = 0
KPG1 140054Z 03022KT 17/M03 A3014 RMK A01 T01731025  RH  026%=      5-min Rain = 0
KPG1 140055Z 03023KT 17/M03 A3014 RMK A01 T01721026  RH  026%=      5-min Rain = 0
KPG1 140056Z 03022KT 17/M03 A3014 RMK A01 T01721026  RH  026%=      5-min Rain = 0
KPG1 140057Z 03020KT 17/M03 A3014 RMK A01 T01711026  RH  026%=      5-min Rain = 0
KPG1 140058Z 03019KT 17/M03 A3014 RMK A01 T01711026  RH  026%=      5-min Rain = 0
KPG1 140059Z 03021KT 17/M03 A3014 RMK A01 T01711027  RH  026%=      5-min Rain = 0
KPG1 140100Z 04021G27KT 17/M03 A3014 RMK A01 T01701027  RH  026%=      5-min Rain = 0
KPG1 140101Z 04021KT 17/M03 A3014 RMK A01 T01701027  RH  026%=      5-min Rain = 0
KPG1 140102Z 03018KT 17/M03 A3014 RMK A01 T01701028  RH  026%=      5-min Rain = 0
KPG1 140103Z 04017KT 17/M03 A3014 RMK A01 T01701028  RH  026%=      5-min Rain = 0
KPG1 140104Z 03020KT 17/M03 A3014 RMK A01 T01701028  RH  026%=      5-min Rain = 0
KPG1 140105Z 03021KT 17/M03 A3014 RMK A01 T01691029  RH  026%=      5-min Rain = 0
KPG1 140106Z 03021G27KT 17/M03 A3014 RMK A01 T01691029  RH  026%=      5-min Rain = 0
KPG1 140107Z 03022KT 17/M03 A3014 RMK A01 T01681029  RH  026%=      5-min Rain = 0
KPG1 140108Z 03020KT 17/M03 A3014 RMK A01 T01681029  RH  026%=      5-min Rain = 0
KPG1 140109Z 04019G25KT 17/M03 A3014 RMK A01 T01681030  RH  026%=      5-min Rain = 0
KPG1 140110Z 04021G29KT 17/M03 A3014 RMK A01 T01681030  RH  026%=      5-min Rain = 0
KPG1 140111Z 03023G31KT 17/M03 A3014 RMK A01 T01671030  RH  026%=      5-min Rain = 0
KPG1 140112Z 03024KT 17/M03 A3014 RMK A01 T01671030  RH  026%=      5-min Rain = 0
KPG1 140113Z 03021G26KT 17/M03 A3014 RMK A01 T01671030  RH  026%=      5-min Rain = 0
KPG1 140114Z 04021G26KT 17/M03 A3014 RMK A01 T01671030  RH  026%=      5-min Rain = 0
KPG1 140115Z 04019G24KT 17/M03 A3014 RMK A01 T01671030  RH  026%=      5-min Rain = 0
KPG1 140116Z 03019G25KT 17/M03 A3014 RMK A01 T01671030  RH  026%=      5-min Rain = 0
KPG1 140117Z 03019G26KT 17/M03 A3015 RMK A01 T01671030  RH  026%=      5-min Rain = 0
KPG1 140118Z 03020G25KT 17/M03 A3015 RMK A01 T01661030  RH  026%=      5-min Rain = 0
KPG1 140119Z 04018G28KT 17/M03 A3015 RMK A01 T01661030  RH  026%=      5-min Rain = 0
KPG1 140120Z 03021G26KT 17/M03 A3015 RMK A01 T01661030  RH  026%=      5-min Rain = 0
KPG1 140121Z 03018KT 17/M03 A3015 RMK A01 T01661030  RH  026%=      5-min Rain = 0
KPG1 140122Z 03020G27KT 17/M03 A3015 RMK A01 T01661031  RH  026%=      5-min Rain = 0
KPG1 140123Z 04019G24KT 17/M03 A3015 RMK A01 T01661030  RH  026%=      5-min Rain = 0
KPG1 140124Z 03020KT 17/M03 A3015 RMK A01 T01661030  RH  026%=      5-min Rain = 0
KPG1 140125Z 03019G25KT 17/M03 A3015 RMK A01 T01651031  RH  026%=      5-min Rain = 0
KPG1 140126Z 03021KT 17/M03 A3015 RMK A01 T01651031  RH  026%=      5-min Rain = 0
KPG1 140127Z 03020KT 17/M03 A3015 RMK A01 T01661030  RH  026%=      5-min Rain = 0
KPG1 140128Z 03020G25KT 17/M03 A3015 RMK A01 T01651031  RH  026%=      5-min Rain = 0
KPG1 140129Z 02020G25KT 17/M03 A3015 RMK A01 T01651031  RH  026%=      5-min Rain = 0
KPG1 140130Z 03019G25KT 17/M03 A3015 RMK A01 T01651031  RH  026%=      5-min Rain = 0
KPG1 140131Z 03019G24KT 16/M03 A3015 RMK A01 T01641031  RH  026%=      5-min Rain = 0
KPG1 140132Z 04017KT 17/M03 A3015 RMK A01 T01651031  RH  026%=      5-min Rain = 0
KPG1 140133Z 03018KT 16/M03 A3015 RMK A01 T01641031  RH  026%=      5-min Rain = 0
KPG1 140134Z 03018G23KT 16/M03 A3015 RMK A01 T01641031  RH  026%=      5-min Rain = 0
KPG1 140135Z 03019G24KT 16/M03 A3015 RMK A01 T01641031  RH  026%=      5-min Rain = 0
KPG1 140136Z 04021G26KT 16/M03 A3015 RMK A01 T01641032  RH  026%=      5-min Rain = 0
KPG1 140137Z 04021G26KT 16/M03 A3015 RMK A01 T01641032  RH  026%=      5-min Rain = 0
KPG1 140138Z 03018G25KT 16/M03 A3015 RMK A01 T01641032  RH  026%=      5-min Rain = 0
KPG1 140139Z 03019G25KT 16/M03 A3015 RMK A01 T01641032  RH  026%=      5-min Rain = 0
KPG1 140140Z 03020KT 16/M03 A3015 RMK A01 T01641033  RH  026%=      5-min Rain = 0
KPG1 140141Z 03021KT 16/M03 A3015 RMK A01 T01641033  RH  026%=      5-min Rain = 0
KPG1 140142Z 04020G27KT 16/M03 A3015 RMK A01 T01641033  RH  026%=      5-min Rain = 0
KPG1 140143Z 04021KT 16/M03 A3015 RMK A01 T01631033  RH  026%=      5-min Rain = 0
KPG1 140144Z 04017G24KT 16/M03 A3015 RMK A01 T01631033  RH  026%=      5-min Rain = 0
KPG1 140145Z 03020KT 16/M03 A3015 RMK A01 T01631034  RH  026%=      5-min Rain = 0
KPG1 140146Z 03017G22KT 16/M03 A3015 RMK A01 T01631034  RH  026%=      5-min Rain = 0
KPG1 140147Z 03019KT 16/M03 A3015 RMK A01 T01631034  RH  026%=      5-min Rain = 0
KPG1 140148Z 04019KT 16/M03 A3015 RMK A01 T01621034  RH  026%=      5-min Rain = 0
KPG1 140149Z 03019KT 16/M04 A3015 RMK A01 T01621035  RH  026%=      5-min Rain = 0
KPG1 140150Z 03020KT 16/M04 A3015 RMK A01 T01621035  RH  026%=      5-min Rain = 0
KPG1 140151Z 03022KT 16/M04 A3016 RMK A01 T01621035  RH  026%=      5-min Rain = 0
KPG1 140152Z 03021KT 16/M04 A3016 RMK A01 T01611036  RH  026%=      5-min Rain = 0
KPG1 140153Z 03020KT 16/M04 A3016 RMK A01 T01611036  RH  026%=      5-min Rain = 0
KPG1 140154Z 03020KT 16/M04 A3016 RMK A01 T01611036  RH  026%=      5-min Rain = 0
KPG1 140155Z 03018KT 16/M04 A3016 RMK A01 T01611037  RH  026%=      5-min Rain = 0
KPG1 140156Z 03020KT 16/M04 A3016 RMK A01 T01611037  RH  025%=      5-min Rain = 0
KPG1 140157Z 03020G25KT 16/M04 A3016 RMK A01 T01611037  RH  025%=      5-min Rain = 0
KPG1 140158Z 03020KT 16/M04 A3016 RMK A01 T01611038  RH  025%=      5-min Rain = 0
KPG1 140159Z 03020G26KT 16/M04 A3016 RMK A01 T01611038  RH  025%=      5-min Rain = 0
KPG1 140200Z 03019KT 16/M04 A3016 RMK A01 T01601038  RH  025%=      5-min Rain = 0
KPG1 140201Z 03020KT 16/M04 A3016 RMK A01 T01601038  RH  025%=      5-min Rain = 0
KPG1 140202Z 03017G22KT 16/M04 A3016 RMK A01 T01601039  RH  025%=      5-min Rain = 0
KPG1 140203Z 03021KT 16/M04 A3016 RMK A01 T01601039  RH  025%=      5-min Rain = 0
KPG1 140204Z 03020KT 16/M04 A3016 RMK A01 T01601038  RH  025%=      5-min Rain = 0
KPG1 140205Z 03021G26KT 16/M04 A3016 RMK A01 T01601038  RH  025%=      5-min Rain = 0
KPG1 140206Z 03020KT 16/M04 A3016 RMK A01 T01601038  RH  025%=      5-min Rain = 0
KPG1 140207Z 03019KT 16/M04 A3017 RMK A01 T01601038  RH  025%=      5-min Rain = 0
KPG1 140208Z 03020KT 16/M04 A3017 RMK A01 T01601038  RH  025%=      5-min Rain = 0
KPG1 140209Z 03020KT 16/M04 A3017 RMK A01 T01601038  RH  026%=      5-min Rain = 0
KPG1 140210Z 03019KT 16/M04 A3017 RMK A01 T01601037  RH  026%=      5-min Rain = 0
KPG1 140211Z 03021G27KT 16/M04 A3017 RMK A01 T01601037  RH  026%=      5-min Rain = 0
KPG1 140212Z 03020KT 16/M04 A3017 RMK A01 T01601037  RH  026%=      5-min Rain = 0
KPG1 140213Z 03022KT 16/M04 A3017 RMK A01 T01601037  RH  026%=      5-min Rain = 0
KPG1 140214Z 03020KT 16/M04 A3017 RMK A01 T01591037  RH  026%=      5-min Rain = 0
KPG1 140215Z 03019KT 16/M04 A3017 RMK A01 T01591037  RH  026%=      5-min Rain = 0
KPG1 140216Z 04021G29KT 16/M04 A3017 RMK A01 T01591037  RH  026%=      5-min Rain = 0
KPG1 140217Z 03020KT 16/M04 A3017 RMK A01 T01591037  RH  026%=      5-min Rain = 0
KPG1 140218Z 03023KT 16/M04 A3017 RMK A01 T01591037  RH  026%=      5-min Rain = 0
KPG1 140219Z 03023G29KT 16/M04 A3017 RMK A01 T01581036  RH  026%=      5-min Rain = 0
KPG1 140220Z 03020G27KT 16/M04 A3017 RMK A01 T01581036  RH  026%=      5-min Rain = 0
KPG1 140221Z 03020G25KT 16/M04 A3017 RMK A01 T01581036  RH  026%=      5-min Rain = 0
KPG1 140222Z 03020G25KT 16/M04 A3017 RMK A01 T01581036  RH  026%=      5-min Rain = 0
KPG1 140223Z 03020KT 16/M04 A3017 RMK A01 T01581035  RH  026%=      5-min Rain = 0
KPG1 140224Z 04020KT 16/M04 A3017 RMK A01 T01571035  RH  026%=      5-min Rain = 0
KPG1 140225Z 03021KT 16/M04 A3017 RMK A01 T01571035  RH  026%=      5-min Rain = 0
KPG1 140226Z 03020KT 16/M04 A3017 RMK A01 T01571035  RH  027%=      5-min Rain = 0
KPG1 140227Z 03021KT 16/M03 A3017 RMK A01 T01571034  RH  027%=      5-min Rain = 0
KPG1 140228Z 03021KT 16/M03 A3017 RMK A01 T01571033  RH  027%=      5-min Rain = 0
KPG1 140229Z 03020KT 16/M03 A3017 RMK A01 T01561033  RH  027%=      5-min Rain = 0
KPG1 140230Z 04021G29KT 16/M03 A3017 RMK A01 T01561033  RH  027%=      5-min Rain = 0
KPG1 140231Z 03021KT 16/M03 A3017 RMK A01 T01561032  RH  027%=      5-min Rain = 0
KPG1 140232Z 03022KT 16/M03 A3017 RMK A01 T01561032  RH  027%=      5-min Rain = 0
KPG1 140233Z 03021KT 16/M03 A3017 RMK A01 T01551032  RH  027%=      5-min Rain = 0
KPG1 140234Z 04021KT 16/M03 A3017 RMK A01 T01561031  RH  027%=      5-min Rain = 0
KPG1 140235Z 03018KT 16/M03 A3017 RMK A01 T01561031  RH  028%=      5-min Rain = 0
KPG1 140236Z 04021KT 16/M03 A3017 RMK A01 T01551031  RH  028%=      5-min Rain = 0
KPG1 140237Z 04022KT 16/M03 A3017 RMK A01 T01551031  RH  028%=      5-min Rain = 0
KPG1 140238Z 04023KT 16/M03 A3017 RMK A01 T01551030  RH  028%=      5-min Rain = 0
KPG1 140239Z 04016G23KT 16/M03 A3017 RMK A01 T01551030  RH  028%=      5-min Rain = 0
KPG1 140240Z 03021KT 15/M03 A3017 RMK A01 T01541030  RH  028%=      5-min Rain = 0
KPG1 140241Z 04020KT 15/M03 A3017 RMK A01 T01541030  RH  028%=      5-min Rain = 0
KPG1 140242Z 03019KT 15/M03 A3017 RMK A01 T01541030  RH  028%=      5-min Rain = 0
KPG1 140243Z 03021KT 15/M03 A3017 RMK A01 T01541029  RH  028%=      5-min Rain = 0
KPG1 140244Z 04020KT 15/M03 A3017 RMK A01 T01541029  RH  028%=      5-min Rain = 0
KPG1 140245Z 03020KT 15/M03 A3018 RMK A01 T01541029  RH  028%=      5-min Rain = 0
KPG1 140246Z 04022G28KT 15/M03 A3018 RMK A01 T01541029  RH  028%=      5-min Rain = 0
KPG1 140247Z 04020G25KT 15/M03 A3018 RMK A01 T01541028  RH  028%=      5-min Rain = 0
KPG1 140248Z 03023KT 15/M03 A3018 RMK A01 T01541028  RH  028%=      5-min Rain = 0
KPG1 140249Z 04023G28KT 15/M03 A3018 RMK A01 T01531028  RH  029%=      5-min Rain = 0
KPG1 140250Z 03022G27KT 15/M03 A3018 RMK A01 T01541028  RH  029%=      5-min Rain = 0
KPG1 140251Z 03021KT 15/M03 A3018 RMK A01 T01541028  RH  029%=      5-min Rain = 0
KPG1 140252Z 03020KT 15/M03 A3018 RMK A01 T01531028  RH  029%=      5-min Rain = 0
KPG1 140253Z 04021KT 15/M03 A3018 RMK A01 T01531028  RH  029%=      5-min Rain = 0
KPG1 140254Z 04019G24KT 15/M03 A3018 RMK A01 T01531027  RH  029%=      5-min Rain = 0
KPG1 140255Z 03021G27KT 15/M03 A3018 RMK A01 T01531027  RH  029%=      5-min Rain = 0
KPG1 140256Z 03020G25KT 15/M03 A3018 RMK A01 T01531028  RH  029%=      5-min Rain = 0
KPG1 140257Z 04020KT 15/M03 A3018 RMK A01 T01531027  RH  029%=      5-min Rain = 0
KPG1 140258Z 03021G26KT 15/M03 A3018 RMK A01 T01531027  RH  029%=      5-min Rain = 0
KPG1 140259Z 04021KT 15/M03 A3018 RMK A01 T01531027  RH  029%=      5-min Rain = 0
KPG1 140300Z 04021KT 15/M03 A3018 RMK A01 T01521027  RH  029%=      5-min Rain = 0
KPG1 140301Z 03020G26KT 15/M03 A3018 RMK A01 T01521027  RH  029%=      5-min Rain = 0
KPG1 140302Z 04021KT 15/M03 A3018 RMK A01 T01521027  RH  029%=      5-min Rain = 0
KPG1 140303Z 04023KT 15/M03 A3018 RMK A01 T01521027  RH  029%=      5-min Rain = 0
KPG1 140304Z 04021KT 15/M03 A3018 RMK A01 T01521027  RH  029%=      5-min Rain = 0
KPG1 140305Z 03020KT 15/M03 A3018 RMK A01 T01521027  RH  029%=      5-min Rain = 0
KPG1 140306Z 03021G26KT 15/M03 A3018 RMK A01 T01521027  RH  029%=      5-min Rain = 0
KPG1 140307Z 03020KT 15/M03 A3018 RMK A01 T01521027  RH  029%=      5-min Rain = 0
KPG1 140308Z 04019KT 15/M03 A3018 RMK A01 T01511027  RH  029%=      5-min Rain = 0
KPG1 140309Z 04021KT 15/M03 A3018 RMK A01 T01511027  RH  029%=      5-min Rain = 0
KPG1 140310Z 03022KT 15/M03 A3018 RMK A01 T01511027  RH  029%=      5-min Rain = 0
KPG1 140311Z 04021KT 15/M03 A3018 RMK A01 T01511027  RH  029%=      5-min Rain = 0
KPG1 140312Z 03022KT 15/M03 A3018 RMK A01 T01511027  RH  029%=      5-min Rain = 0
KPG1 140313Z 03023KT 15/M03 A3018 RMK A01 T01511027  RH  029%=      5-min Rain = 0
KPG1 140314Z 03022KT 15/M03 A3018 RMK A01 T01511027  RH  029%=      5-min Rain = 0
KPG1 140315Z 03022KT 15/M03 A3018 RMK A01 T01511027  RH  029%=      5-min Rain = 0
KPG1 140316Z 03021KT 15/M03 A3018 RMK A01 T01511027  RH  029%=      5-min Rain = 0
KPG1 140317Z 03015G22KT 15/M03 A3018 RMK A01 T01511027  RH  029%=      5-min Rain = 0
KPG1 140318Z 03020G25KT 15/M03 A3018 RMK A01 T01501027  RH  029%=      5-min Rain = 0
KPG1 140319Z 03020KT 15/M03 A3018 RMK A01 T01501027  RH  029%=      5-min Rain = 0
KPG1 140320Z 03021KT 15/M03 A3018 RMK A01 T01501027  RH  029%=      5-min Rain = 0
KPG1 140321Z 04021KT 15/M03 A3018 RMK A01 T01501027  RH  029%=      5-min Rain = 0
KPG1 140322Z 04020KT 15/M03 A3018 RMK A01 T01491028  RH  029%=      5-min Rain = 0
KPG1 140323Z 03018G24KT 15/M03 A3018 RMK A01 T01491027  RH  029%=      5-min Rain = 0
KPG1 140324Z 04019KT 15/M03 A3018 RMK A01 T01491028  RH  029%=      5-min Rain = 0
KPG1 140325Z 03020KT 15/M03 A3018 RMK A01 T01491027  RH  030%=      5-min Rain = 0
KPG1 140326Z 03022KT 15/M03 A3018 RMK A01 T01491027  RH  030%=      5-min Rain = 0
KPG1 140327Z 04021KT 15/M03 A3018 RMK A01 T01491027  RH  030%=      5-min Rain = 0
KPG1 140328Z 03019KT 15/M03 A3018 RMK A01 T01491027  RH  030%=      5-min Rain = 0
KPG1 140329Z 03018KT 15/M03 A3018 RMK A01 T01481027  RH  030%=      5-min Rain = 0
KPG1 140330Z 03020KT 15/M03 A3018 RMK A01 T01481028  RH  030%=      5-min Rain = 0
KPG1 140331Z 03021KT 15/M03 A3018 RMK A01 T01481027  RH  030%=      5-min Rain = 0
KPG1 140332Z 03018KT 15/M03 A3018 RMK A01 T01481027  RH  030%=      5-min Rain = 0
KPG1 140333Z 03021KT 15/M03 A3018 RMK A01 T01471028  RH  030%=      5-min Rain = 0
KPG1 140334Z 03019KT 15/M03 A3018 RMK A01 T01481027  RH  030%=      5-min Rain = 0
KPG1 140335Z 03021KT 15/M03 A3018 RMK A01 T01471027  RH  030%=      5-min Rain = 0
KPG1 140336Z 03019KT 15/M03 A3018 RMK A01 T01471028  RH  030%=      5-min Rain = 0
KPG1 140337Z 03017KT 15/M03 A3018 RMK A01 T01471028  RH  030%=      5-min Rain = 0
KPG1 140338Z 03019KT 15/M03 A3018 RMK A01 T01471028  RH  030%=      5-min Rain = 0
KPG1 140339Z 03020KT 15/M03 A3018 RMK A01 T01471028  RH  030%=      5-min Rain = 0
KPG1 140340Z 03019KT 15/M03 A3018 RMK A01 T01471027  RH  030%=      5-min Rain = 0
KPG1 140341Z 03017KT 15/M03 A3018 RMK A01 T01461028  RH  030%=      5-min Rain = 0
KPG1 140342Z 03019KT 15/M03 A3018 RMK A01 T01461028  RH  030%=      5-min Rain = 0
KPG1 140343Z 03018KT 15/M03 A3018 RMK A01 T01461028  RH  030%=      5-min Rain = 0
KPG1 140344Z 03017G22KT 15/M03 A3018 RMK A01 T01461028  RH  030%=      5-min Rain = 0
KPG1 140345Z 03020KT 15/M03 A3018 RMK A01 T01451028  RH  030%=      5-min Rain = 0
KPG1 140346Z 03020KT 15/M03 A3018 RMK A01 T01451028  RH  030%=      5-min Rain = 0
KPG1 140347Z 03018KT 15/M03 A3018 RMK A01 T01451028  RH  030%=      5-min Rain = 0
KPG1 140348Z 03016KT 15/M03 A3019 RMK A01 T01451028  RH  030%=      5-min Rain = 0
KPG1 140349Z 03017KT 14/M03 A3019 RMK A01 T01441028  RH  030%=      5-min Rain = 0
KPG1 140350Z 04016KT 14/M03 A3019 RMK A01 T01441028  RH  030%=      5-min Rain = 0
KPG1 140351Z 03015KT 14/M03 A3019 RMK A01 T01441028  RH  030%=      5-min Rain = 0
KPG1 140352Z 03015KT 14/M03 A3019 RMK A01 T01431029  RH  030%=      5-min Rain = 0
KPG1 140353Z 02016G22KT 14/M03 A3019 RMK A01 T01431029  RH  030%=      5-min Rain = 0
KPG1 140354Z 03017KT 14/M03 A3019 RMK A01 T01431029  RH  030%=      5-min Rain = 0
KPG1 140355Z 03017G23KT 14/M03 A3019 RMK A01 T01431029  RH  030%=      5-min Rain = 0
KPG1 140356Z 03015KT 14/M03 A3019 RMK A01 T01431029  RH  030%=      5-min Rain = 0
KPG1 140357Z 03016G21KT 14/M03 A3019 RMK A01 T01421029  RH  030%=      5-min Rain = 0
KPG1 140358Z 02017KT 14/M03 A3019 RMK A01 T01421029  RH  031%=      5-min Rain = 0
KPG1 140359Z 02016KT 14/M03 A3019 RMK A01 T01421029  RH  031%=      5-min Rain = 0
KPG1 140400Z 02017KT 14/M03 A3019 RMK A01 T01421029  RH  031%=      5-min Rain = 0
KPG1 140401Z 03016KT 14/M03 A3019 RMK A01 T01411029  RH  031%=      5-min Rain = 0
KPG1 140402Z 03015KT 14/M03 A3019 RMK A01 T01411029  RH  031%=      5-min Rain = 0
KPG1 140403Z 03016KT 14/M03 A3019 RMK A01 T01411030  RH  031%=      5-min Rain = 0
KPG1 140404Z 02017KT 14/M03 A3019 RMK A01 T01411029  RH  031%=      5-min Rain = 0
KPG1 140405Z 02017KT 14/M03 A3019 RMK A01 T01411029  RH  031%=      5-min Rain = 0
KPG1 140406Z 02018KT 14/M03 A3019 RMK A01 T01411029  RH  031%=      5-min Rain = 0
KPG1 140407Z 03017KT 14/M03 A3019 RMK A01 T01411030  RH  031%=      5-min Rain = 0
KPG1 140408Z 03016KT 14/M03 A3019 RMK A01 T01411030  RH  031%=      5-min Rain = 0
KPG1 140409Z 03014KT 14/M03 A3019 RMK A01 T01411030  RH  031%=      5-min Rain = 0
KPG1 140410Z 02016KT 14/M03 A3019 RMK A01 T01401030  RH  031%=      5-min Rain = 0
KPG1 140411Z 03016KT 14/M03 A3019 RMK A01 T01401030  RH  031%=      5-min Rain = 0
KPG1 140412Z 03016KT 14/M03 A3019 RMK A01 T01401030  RH  031%=      5-min Rain = 0
KPG1 140413Z 03015KT 14/M03 A3019 RMK A01 T01401030  RH  031%=      5-min Rain = 0
KPG1 140414Z 03014KT 14/M03 A3019 RMK A01 T01401030  RH  031%=      5-min Rain = 0
KPG1 140415Z 02016KT 14/M03 A3019 RMK A01 T01401030  RH  031%=      5-min Rain = 0
KPG1 140416Z 02017KT 14/M03 A3019 RMK A01 T01391030  RH  031%=      5-min Rain = 0
KPG1 140417Z 03016KT 14/M03 A3019 RMK A01 T01391030  RH  031%=      5-min Rain = 0
KPG1 140418Z 03016KT 14/M03 A3019 RMK A01 T01391030  RH  031%=      5-min Rain = 0
KPG1 140419Z 03018KT 14/M03 A3019 RMK A01 T01401031  RH  031%=      5-min Rain = 0
KPG1 140420Z 03017KT 14/M03 A3019 RMK A01 T01401031  RH  031%=      5-min Rain = 0
KPG1 140421Z 03017G23KT 14/M03 A3019 RMK A01 T01401031  RH  030%=      5-min Rain = 0
KPG1 140422Z 03018KT 14/M03 A3019 RMK A01 T01401031  RH  030%=      5-min Rain = 0
KPG1 140423Z 03017KT 14/M03 A3019 RMK A01 T01401031  RH  030%=      5-min Rain = 0
KPG1 140424Z 03017KT 14/M03 A3019 RMK A01 T01401031  RH  030%=      5-min Rain = 0
KPG1 140425Z 03017KT 14/M03 A3019 RMK A01 T01401031  RH  030%=      5-min Rain = 0
KPG1 140426Z 03019KT 14/M03 A3019 RMK A01 T01411031  RH  030%=      5-min Rain = 0
KPG1 140427Z 03017KT 14/M03 A3019 RMK A01 T01411031  RH  030%=      5-min Rain = 0
KPG1 140428Z 03017KT 14/M03 A3019 RMK A01 T01411032  RH  030%=      5-min Rain = 0
KPG1 140429Z 03018KT 14/M03 A3019 RMK A01 T01411032  RH  030%=      5-min Rain = 0
KPG1 140430Z 03018G23KT 14/M03 A3019 RMK A01 T01411032  RH  030%=      5-min Rain = 0
KPG1 140431Z 03015KT 14/M03 A3019 RMK A01 T01411032  RH  030%=      5-min Rain = 0
KPG1 140432Z 03017KT 14/M03 A3019 RMK A01 T01401032  RH  030%=      5-min Rain = 0
KPG1 140433Z 03014KT 14/M03 A302 RMK A01 T01401032  RH  030%=      5-min Rain = 0
KPG1 140434Z 03014G19KT 14/M03 A302 RMK A01 T01391032  RH  030%=      5-min Rain = 0
KPG1 140435Z 03016KT 14/M03 A302 RMK A01 T01391032  RH  030%=      5-min Rain = 0
KPG1 140436Z 03015KT 14/M03 A302 RMK A01 T01391032  RH  030%=      5-min Rain = 0
KPG1 140437Z 03013KT 14/M03 A302 RMK A01 T01391032  RH  030%=      5-min Rain = 0
KPG1 140438Z 03015KT 14/M03 A302 RMK A01 T01381033  RH  030%=      5-min Rain = 0
KPG1 140439Z 03016KT 14/M03 A302 RMK A01 T01381033  RH  030%=      5-min Rain = 0
KPG1 140440Z 03013KT 14/M03 A302 RMK A01 T01381033  RH  030%=      5-min Rain = 0
KPG1 140441Z 02015KT 14/M03 A302 RMK A01 T01381033  RH  030%=      5-min Rain = 0
KPG1 140442Z 02014KT 14/M03 A302 RMK A01 T01371033  RH  031%=      5-min Rain = 0
KPG1 140443Z 02014KT 14/M03 A302 RMK A01 T01371033  RH  031%=      5-min Rain = 0
KPG1 140444Z 02017KT 14/M03 A302 RMK A01 T01371033  RH  031%=      5-min Rain = 0
KPG1 140445Z 02016KT 14/M03 A302 RMK A01 T01371033  RH  031%=      5-min Rain = 0
KPG1 140446Z 02016KT 14/M03 A3019 RMK A01 T01371033  RH  031%=      5-min Rain = 0
KPG1 140447Z 02015KT 14/M03 A302 RMK A01 T01371033  RH  031%=      5-min Rain = 0
KPG1 140448Z 02016KT 14/M03 A3019 RMK A01 T01371034  RH  031%=      5-min Rain = 0
KPG1 140449Z 02016KT 14/M03 A3019 RMK A01 T01371033  RH  031%=      5-min Rain = 0
KPG1 140450Z 03013KT 14/M03 A3019 RMK A01 T01371033  RH  031%=      5-min Rain = 0
KPG1 140451Z 02014KT 14/M03 A3019 RMK A01 T01361034  RH  031%=      5-min Rain = 0
KPG1 140452Z 02015KT 14/M03 A3019 RMK A01 T01361034  RH  031%=      5-min Rain = 0
KPG1 140453Z 02016KT 14/M03 A3019 RMK A01 T01361034  RH  031%=      5-min Rain = 0
KPG1 140454Z 02015KT 14/M03 A3019 RMK A01 T01361034  RH  031%=      5-min Rain = 0
KPG1 140455Z 02015KT 14/M03 A3019 RMK A01 T01361034  RH  031%=      5-min Rain = 0
KPG1 140456Z 02016KT 14/M03 A3019 RMK A01 T01361034  RH  031%=      5-min Rain = 0
KPG1 140457Z 02016KT 14/M03 A3019 RMK A01 T01361034  RH  031%=      5-min Rain = 0
KPG1 140458Z 02016KT 14/M03 A3019 RMK A01 T01361034  RH  031%=      5-min Rain = 0
KPG1 140459Z 02016KT 14/M04 A3019 RMK A01 T01361035  RH  031%=      5-min Rain = 0

Page generated in 0.0762 seconds.